PWSweather.com
Personal Weather Stations
Station Observations
EI4HQ
Cork Harbour, CobhIE

Cork HarbourCobhIE

Lat: 51.85, Lon: -8.29

Elevation: 252

Station Type: Davis Vantage Pro2

http://www.corkharbourweather.ie

High Low Average
Temperature 70.5°F21.4°C 57.4°F14.1°C 62.8°F17.1°C
Dew Point 63.5°F17.5°C 51.4°F10.8°C 57.1°F13.9°C
Winds 10.0 mph 16.1 kmh Calm Calm 5.0 mph WSW8.0 kmh WSW
Wind Gusts 23.0 mph37.0 kmh 3.0 mph4.8 kmh 11.0 mph17.7 kmh
Humidity 96% 76% 82%
Pressure 30.13 in1020.3 mb 30.00 in1015.9 mb -
Precipitation 0.00 in0.0 mm - -
Hour Temp Dew Point Humidity Winds Wind Gusts Pressure Precip Precip Rate Daily Precip Total
12:00 AM 57.4°F14.1°C 51.4°F10.8°C 81% 4.0 mph WSW6.4 kmh WSW 11.0 mph17.7 kmh 30.01 in1016.3 mb 0.00 in0.0 mm 0.00 in0.0 mm 0.00 in0.0 mm
12:03 AM 57.4°F14.1°C 51.4°F10.8°C 81% 4.0 mph WSW6.4 kmh WSW 11.0 mph17.7 kmh 30.01 in1016.3 mb 0.00 in0.0 mm 0.00 in0.0 mm 0.00 in0.0 mm
12:06 AM 57.4°F14.1°C 51.4°F10.8°C 81% 4.0 mph WSW6.4 kmh WSW 9.0 mph14.5 kmh 30.01 in1016.3 mb 0.00 in0.0 mm 0.00 in0.0 mm 0.00 in0.0 mm
12:09 AM 57.4°F14.1°C 51.4°F10.8°C 81% 3.0 mph WSW4.8 kmh WSW 9.0 mph14.5 kmh 30.01 in1016.3 mb 0.00 in0.0 mm 0.00 in0.0 mm 0.00 in0.0 mm
12:12 AM 57.4°F14.1°C 51.4°F10.8°C 81% 3.0 mph WSW4.8 kmh WSW 7.0 mph11.3 kmh 30.00 in1015.9 mb 0.00 in0.0 mm 0.00 in0.0 mm 0.00 in0.0 mm
12:15 AM 57.4°F14.1°C 51.4°F10.8°C 81% 3.0 mph WSW4.8 kmh WSW 7.0 mph11.3 kmh 30.01 in1016.3 mb 0.00 in0.0 mm 0.00 in0.0 mm 0.00 in0.0 mm
12:18 AM 57.4°F14.1°C 51.4°F10.8°C 81% 3.0 mph WSW4.8 kmh WSW 7.0 mph11.3 kmh 30.00 in1015.9 mb 0.00 in0.0 mm 0.00 in0.0 mm 0.00 in0.0 mm
12:21 AM 57.4°F14.1°C 51.4°F10.8°C 81% 3.0 mph W4.8 kmh W 7.0 mph11.3 kmh 30.00 in1015.9 mb 0.00 in0.0 mm 0.00 in0.0 mm 0.00 in0.0 mm
12:24 AM 57.4°F14.1°C 51.4°F10.8°C 81% 3.0 mph WSW4.8 kmh WSW 8.0 mph12.9 kmh 30.01 in1016.3 mb 0.00 in0.0 mm 0.00 in0.0 mm 0.00 in0.0 mm
12:27 AM 57.4°F14.1°C 51.4°F10.8°C 81% 3.0 mph WSW4.8 kmh WSW 8.0 mph12.9 kmh 30.00 in1015.9 mb 0.00 in0.0 mm 0.00 in0.0 mm 0.00 in0.0 mm
12:30 AM 57.4°F14.1°C 51.4°F10.8°C 81% 3.0 mph WSW4.8 kmh WSW 8.0 mph12.9 kmh 30.00 in1015.9 mb 0.00 in0.0 mm 0.00 in0.0 mm 0.00 in0.0 mm
12:33 AM 57.4°F14.1°C 51.4°F10.8°C 81% 3.0 mph WSW4.8 kmh WSW 8.0 mph12.9 kmh 30.00 in1015.9 mb 0.00 in0.0 mm 0.00 in0.0 mm 0.00 in0.0 mm
12:36 AM 57.4°F14.1°C 51.4°F10.8°C 81% 2.0 mph WSW3.2 kmh WSW 4.0 mph6.4 kmh 30.01 in1016.3 mb 0.00 in0.0 mm 0.00 in0.0 mm 0.00 in0.0 mm
12:39 AM 57.4°F14.1°C 51.4°F10.8°C 81% 2.0 mph WSW3.2 kmh WSW 4.0 mph6.4 kmh 30.01 in1016.3 mb 0.00 in0.0 mm 0.00 in0.0 mm 0.00 in0.0 mm
12:42 AM 57.4°F14.1°C 51.4°F10.8°C 81% 2.0 mph SW3.2 kmh SW 6.0 mph9.7 kmh 30.01 in1016.3 mb 0.00 in0.0 mm 0.00 in0.0 mm 0.00 in0.0 mm
12:45 AM 57.4°F14.1°C 51.4°F10.8°C 81% 2.0 mph WSW3.2 kmh WSW 6.0 mph9.7 kmh 30.01 in1016.3 mb 0.00 in0.0 mm 0.00 in0.0 mm 0.00 in0.0 mm
12:48 AM 57.4°F14.1°C 51.4°F10.8°C 81% 2.0 mph WSW3.2 kmh WSW 6.0 mph9.7 kmh 30.01 in1016.3 mb 0.00 in0.0 mm 0.00 in0.0 mm 0.00 in0.0 mm
12:51 AM 57.4°F14.1°C 51.4°F10.8°C 81% 2.0 mph WSW3.2 kmh WSW 6.0 mph9.7 kmh 30.01 in1016.3 mb 0.00 in0.0 mm 0.00 in0.0 mm 0.00 in0.0 mm
12:54 AM 57.4°F14.1°C 51.4°F10.8°C 81% 2.0 mph WSW3.2 kmh WSW 5.0 mph8.0 kmh 30.02 in1016.6 mb 0.00 in0.0 mm 0.00 in0.0 mm 0.00 in0.0 mm
12:57 AM 57.4°F14.1°C 51.4°F10.8°C 81% 3.0 mph WSW4.8 kmh WSW 9.0 mph14.5 kmh 30.01 in1016.3 mb 0.00 in0.0 mm 0.00 in0.0 mm 0.00 in0.0 mm
01:00 AM 57.4°F14.1°C 51.4°F10.8°C 81% 3.0 mph WSW4.8 kmh WSW 9.0 mph14.5 kmh 30.01 in1016.3 mb 0.00 in0.0 mm 0.00 in0.0 mm 0.00 in0.0 mm
01:03 AM 57.4°F14.1°C 51.4°F10.8°C 81% 3.0 mph WSW4.8 kmh WSW 9.0 mph14.5 kmh 30.01 in1016.3 mb 0.00 in0.0 mm 0.00 in0.0 mm 0.00 in0.0 mm
01:06 AM 57.4°F14.1°C 51.4°F10.8°C 81% 3.0 mph WSW4.8 kmh WSW 9.0 mph14.5 kmh 30.01 in1016.3 mb 0.00 in0.0 mm 0.00 in0.0 mm 0.00 in0.0 mm
01:09 AM 57.4°F14.1°C 51.4°F10.8°C 81% 3.0 mph WSW4.8 kmh WSW 7.0 mph11.3 kmh 30.01 in1016.3 mb 0.00 in0.0 mm 0.00 in0.0 mm 0.00 in0.0 mm
01:12 AM 57.4°F14.1°C 51.4°F10.8°C 81% 4.0 mph WSW6.4 kmh WSW 10.0 mph16.1 kmh 30.01 in1016.3 mb 0.00 in0.0 mm 0.00 in0.0 mm 0.00 in0.0 mm
01:15 AM 57.4°F14.1°C 51.4°F10.8°C 81% 4.0 mph WSW6.4 kmh WSW 10.0 mph16.1 kmh 30.01 in1016.3 mb 0.00 in0.0 mm 0.00 in0.0 mm 0.00 in0.0 mm
01:18 AM 57.4°F14.1°C 51.4°F10.8°C 81% 5.0 mph WSW8.0 kmh WSW 10.0 mph16.1 kmh 30.02 in1016.6 mb 0.00 in0.0 mm 0.00 in0.0 mm 0.00 in0.0 mm
01:21 AM 57.4°F14.1°C 51.4°F10.8°C 81% 5.0 mph WSW8.0 kmh WSW 10.0 mph16.1 kmh 30.01 in1016.3 mb 0.00 in0.0 mm 0.00 in0.0 mm 0.00 in0.0 mm
01:24 AM 57.4°F14.1°C 51.4°F10.8°C 81% 5.0 mph WSW8.0 kmh WSW 9.0 mph14.5 kmh 30.02 in1016.6 mb 0.00 in0.0 mm 0.00 in0.0 mm 0.00 in0.0 mm
01:27 AM 57.4°F14.1°C 51.4°F10.8°C 81% 5.0 mph WSW8.0 kmh WSW 10.0 mph16.1 kmh 30.02 in1016.6 mb 0.00 in0.0 mm 0.00 in0.0 mm 0.00 in0.0 mm
01:30 AM 57.4°F14.1°C 51.4°F10.8°C 81% 4.0 mph WSW6.4 kmh WSW 10.0 mph16.1 kmh 30.01 in1016.3 mb 0.00 in0.0 mm 0.00 in0.0 mm 0.00 in0.0 mm
01:33 AM 57.4°F14.1°C 51.4°F10.8°C 81% 4.0 mph WSW6.4 kmh WSW 10.0 mph16.1 kmh 30.01 in1016.3 mb 0.00 in0.0 mm 0.00 in0.0 mm 0.00 in0.0 mm
01:36 AM 57.4°F14.1°C 51.4°F10.8°C 81% 4.0 mph WSW6.4 kmh WSW 10.0 mph16.1 kmh 30.01 in1016.3 mb 0.00 in0.0 mm 0.00 in0.0 mm 0.00 in0.0 mm
01:39 AM 57.4°F14.1°C 51.4°F10.8°C 81% 4.0 mph WSW6.4 kmh WSW 10.0 mph16.1 kmh 30.01 in1016.3 mb 0.00 in0.0 mm 0.00 in0.0 mm 0.00 in0.0 mm
01:42 AM 57.4°F14.1°C 51.4°F10.8°C 81% 3.0 mph WSW4.8 kmh WSW 9.0 mph14.5 kmh 30.01 in1016.3 mb 0.00 in0.0 mm 0.00 in0.0 mm 0.00 in0.0 mm
01:45 AM 57.4°F14.1°C 51.4°F10.8°C 81% 3.0 mph WSW4.8 kmh WSW 7.0 mph11.3 kmh 30.01 in1016.3 mb 0.00 in0.0 mm 0.00 in0.0 mm 0.00 in0.0 mm
01:48 AM 57.4°F14.1°C 51.4°F10.8°C 81% 3.0 mph WSW4.8 kmh WSW 7.0 mph11.3 kmh 30.01 in1016.3 mb 0.00 in0.0 mm 0.00 in0.0 mm 0.00 in0.0 mm
01:51 AM 57.4°F14.1°C 51.4°F10.8°C 81% 2.0 mph WSW3.2 kmh WSW 7.0 mph11.3 kmh 30.01 in1016.3 mb 0.00 in0.0 mm 0.00 in0.0 mm 0.00 in0.0 mm
01:54 AM 57.4°F14.1°C 51.4°F10.8°C 81% 2.0 mph WSW3.2 kmh WSW 7.0 mph11.3 kmh 30.01 in1016.3 mb 0.00 in0.0 mm 0.00 in0.0 mm 0.00 in0.0 mm
01:57 AM 57.4°F14.1°C 51.4°F10.8°C 81% 2.0 mph WSW3.2 kmh WSW 7.0 mph11.3 kmh 30.01 in1016.3 mb 0.00 in0.0 mm 0.00 in0.0 mm 0.00 in0.0 mm
02:00 AM 57.4°F14.1°C 51.4°F10.8°C 81% 2.0 mph WSW3.2 kmh WSW 7.0 mph11.3 kmh 30.01 in1016.3 mb 0.00 in0.0 mm 0.00 in0.0 mm 0.00 in0.0 mm
02:03 AM 57.4°F14.1°C 51.4°F10.8°C 81% 2.0 mph WSW3.2 kmh WSW 7.0 mph11.3 kmh 30.01 in1016.3 mb 0.00 in0.0 mm 0.00 in0.0 mm 0.00 in0.0 mm
02:06 AM 57.4°F14.1°C 51.4°F10.8°C 81% 3.0 mph WSW4.8 kmh WSW 7.0 mph11.3 kmh 30.01 in1016.3 mb 0.00 in0.0 mm 0.00 in0.0 mm 0.00 in0.0 mm
02:09 AM 57.4°F14.1°C 51.4°F10.8°C 81% 3.0 mph WSW4.8 kmh WSW 6.0 mph9.7 kmh 30.01 in1016.3 mb 0.00 in0.0 mm 0.00 in0.0 mm 0.00 in0.0 mm
02:12 AM 57.4°F14.1°C 51.4°F10.8°C 81% 3.0 mph WSW4.8 kmh WSW 6.0 mph9.7 kmh 30.01 in1016.3 mb 0.00 in0.0 mm 0.00 in0.0 mm 0.00 in0.0 mm
02:15 AM 57.4°F14.1°C 51.4°F10.8°C 81% 3.0 mph WSW4.8 kmh WSW 6.0 mph9.7 kmh 30.01 in1016.3 mb 0.00 in0.0 mm 0.00 in0.0 mm 0.00 in0.0 mm
02:18 AM 57.4°F14.1°C 51.4°F10.8°C 81% 3.0 mph WSW4.8 kmh WSW 7.0 mph11.3 kmh 30.01 in1016.3 mb 0.00 in0.0 mm 0.00 in0.0 mm 0.00 in0.0 mm
02:21 AM 57.4°F14.1°C 51.4°F10.8°C 81% 3.0 mph WSW4.8 kmh WSW 7.0 mph11.3 kmh 30.01 in1016.3 mb 0.00 in0.0 mm 0.00 in0.0 mm 0.00 in0.0 mm
02:24 AM 57.4°F14.1°C 51.4°F10.8°C 81% 3.0 mph WSW4.8 kmh WSW 7.0 mph11.3 kmh 30.01 in1016.3 mb 0.00 in0.0 mm 0.00 in0.0 mm 0.00 in0.0 mm
02:27 AM 57.4°F14.1°C 51.4°F10.8°C 81% 4.0 mph WSW6.4 kmh WSW 8.0 mph12.9 kmh 30.01 in1016.3 mb 0.00 in0.0 mm 0.00 in0.0 mm 0.00 in0.0 mm
02:30 AM 57.4°F14.1°C 51.4°F10.8°C 81% 4.0 mph WSW6.4 kmh WSW 8.0 mph12.9 kmh 30.01 in1016.3 mb 0.00 in0.0 mm 0.00 in0.0 mm 0.00 in0.0 mm
02:33 AM 57.4°F14.1°C 51.4°F10.8°C 81% 4.0 mph WSW6.4 kmh WSW 8.0 mph12.9 kmh 30.01 in1016.3 mb 0.00 in0.0 mm 0.00 in0.0 mm 0.00 in0.0 mm
02:36 AM 57.4°F14.1°C 51.4°F10.8°C 81% 4.0 mph WSW6.4 kmh WSW 9.0 mph14.5 kmh 30.01 in1016.3 mb 0.00 in0.0 mm 0.00 in0.0 mm 0.00 in0.0 mm
02:39 AM 57.4°F14.1°C 51.4°F10.8°C 81% 5.0 mph W8.0 kmh W 9.0 mph14.5 kmh 30.01 in1016.3 mb 0.00 in0.0 mm 0.00 in0.0 mm 0.00 in0.0 mm
02:42 AM 57.4°F14.1°C 51.4°F10.8°C 81% 5.0 mph W8.0 kmh W 9.0 mph14.5 kmh 30.02 in1016.6 mb 0.00 in0.0 mm 0.00 in0.0 mm 0.00 in0.0 mm
02:45 AM 57.4°F14.1°C 51.4°F10.8°C 81% 5.0 mph W8.0 kmh W 8.0 mph12.9 kmh 30.01 in1016.3 mb 0.00 in0.0 mm 0.00 in0.0 mm 0.00 in0.0 mm
02:48 AM 57.4°F14.1°C 51.4°F10.8°C 81% 5.0 mph W8.0 kmh W 8.0 mph12.9 kmh 30.02 in1016.6 mb 0.00 in0.0 mm 0.00 in0.0 mm 0.00 in0.0 mm
02:51 AM 57.4°F14.1°C 51.4°F10.8°C 81% 4.0 mph WSW6.4 kmh WSW 8.0 mph12.9 kmh 30.02 in1016.6 mb 0.00 in0.0 mm 0.00 in0.0 mm 0.00 in0.0 mm
02:54 AM 57.4°F14.1°C 51.4°F10.8°C 81% 4.0 mph W6.4 kmh W 8.0 mph12.9 kmh 30.01 in1016.3 mb 0.00 in0.0 mm 0.00 in0.0 mm 0.00 in0.0 mm
02:57 AM 57.4°F14.1°C 51.4°F10.8°C 81% 3.0 mph W4.8 kmh W 8.0 mph12.9 kmh 30.02 in1016.6 mb 0.00 in0.0 mm 0.00 in0.0 mm 0.00 in0.0 mm
03:00 AM 57.4°F14.1°C 51.4°F10.8°C 81% 3.0 mph W4.8 kmh W 8.0 mph12.9 kmh 30.02 in1016.6 mb 0.00 in0.0 mm 0.00 in0.0 mm 0.00 in0.0 mm
03:03 AM 57.4°F14.1°C 51.4°F10.8°C 81% 2.0 mph W3.2 kmh W 7.0 mph11.3 kmh 30.02 in1016.6 mb 0.00 in0.0 mm 0.00 in0.0 mm 0.00 in0.0 mm
03:06 AM 57.4°F14.1°C 51.4°F10.8°C 81% 3.0 mph W4.8 kmh W 6.0 mph9.7 kmh 30.02 in1016.6 mb 0.00 in0.0 mm 0.00 in0.0 mm 0.00 in0.0 mm
03:09 AM 57.4°F14.1°C 51.4°F10.8°C 81% 3.0 mph W4.8 kmh W 7.0 mph11.3 kmh 30.02 in1016.6 mb 0.00 in0.0 mm 0.00 in0.0 mm 0.00 in0.0 mm
03:12 AM 57.4°F14.1°C 51.4°F10.8°C 81% 3.0 mph W4.8 kmh W 7.0 mph11.3 kmh 30.02 in1016.6 mb 0.00 in0.0 mm 0.00 in0.0 mm 0.00 in0.0 mm
03:15 AM 57.4°F14.1°C 51.4°F10.8°C 81% 3.0 mph W4.8 kmh W 8.0 mph12.9 kmh 30.02 in1016.6 mb 0.00 in0.0 mm 0.00 in0.0 mm 0.00 in0.0 mm
03:18 AM 57.4°F14.1°C 51.4°F10.8°C 81% 3.0 mph W4.8 kmh W 8.0 mph12.9 kmh 30.02 in1016.6 mb 0.00 in0.0 mm 0.00 in0.0 mm 0.00 in0.0 mm
03:21 AM 57.4°F14.1°C 51.4°F10.8°C 81% 3.0 mph WSW4.8 kmh WSW 8.0 mph12.9 kmh 30.02 in1016.6 mb 0.00 in0.0 mm 0.00 in0.0 mm 0.00 in0.0 mm
03:24 AM 57.4°F14.1°C 51.4°F10.8°C 81% 3.0 mph WSW4.8 kmh WSW 7.0 mph11.3 kmh 30.02 in1016.6 mb 0.00 in0.0 mm 0.00 in0.0 mm 0.00 in0.0 mm
03:27 AM 57.4°F14.1°C 51.4°F10.8°C 81% 3.0 mph WSW4.8 kmh WSW 7.0 mph11.3 kmh 30.02 in1016.6 mb 0.00 in0.0 mm 0.00 in0.0 mm 0.00 in0.0 mm
03:30 AM 57.4°F14.1°C 51.4°F10.8°C 81% 2.0 mph WSW3.2 kmh WSW 7.0 mph11.3 kmh 30.02 in1016.6 mb 0.00 in0.0 mm 0.00 in0.0 mm 0.00 in0.0 mm
03:33 AM 57.4°F14.1°C 51.4°F10.8°C 81% 2.0 mph WSW3.2 kmh WSW 7.0 mph11.3 kmh 30.02 in1016.6 mb 0.00 in0.0 mm 0.00 in0.0 mm 0.00 in0.0 mm
03:36 AM 57.4°F14.1°C 51.4°F10.8°C 81% 2.0 mph WSW3.2 kmh WSW 4.0 mph6.4 kmh 30.02 in1016.6 mb 0.00 in0.0 mm 0.00 in0.0 mm 0.00 in0.0 mm
03:39 AM 57.4°F14.1°C 51.4°F10.8°C 81% 2.0 mph WSW3.2 kmh WSW 4.0 mph6.4 kmh 30.02 in1016.6 mb 0.00 in0.0 mm 0.00 in0.0 mm 0.00 in0.0 mm
03:42 AM 57.4°F14.1°C 51.4°F10.8°C 81% 2.0 mph SW3.2 kmh SW 5.0 mph8.0 kmh 30.02 in1016.6 mb 0.00 in0.0 mm 0.00 in0.0 mm 0.00 in0.0 mm
03:45 AM 57.4°F14.1°C 51.4°F10.8°C 81% 2.0 mph SW3.2 kmh SW 5.0 mph8.0 kmh 30.02 in1016.6 mb 0.00 in0.0 mm 0.00 in0.0 mm 0.00 in0.0 mm
03:48 AM 57.4°F14.1°C 51.4°F10.8°C 81% 1.0 mph WSW1.6 kmh WSW 5.0 mph8.0 kmh 30.02 in1016.6 mb 0.00 in0.0 mm 0.00 in0.0 mm 0.00 in0.0 mm
03:51 AM 57.4°F14.1°C 51.4°F10.8°C 81% 2.0 mph WSW3.2 kmh WSW 4.0 mph6.4 kmh 30.02 in1016.6 mb 0.00 in0.0 mm 0.00 in0.0 mm 0.00 in0.0 mm
03:54 AM 57.4°F14.1°C 51.4°F10.8°C 81% 2.0 mph WSW3.2 kmh WSW 4.0 mph6.4 kmh 30.02 in1016.6 mb 0.00 in0.0 mm 0.00 in0.0 mm 0.00 in0.0 mm
03:57 AM 57.4°F14.1°C 51.4°F10.8°C 81% 2.0 mph WSW3.2 kmh WSW 4.0 mph6.4 kmh 30.02 in1016.6 mb 0.00 in0.0 mm 0.00 in0.0 mm 0.00 in0.0 mm
04:00 AM 57.4°F14.1°C 51.4°F10.8°C 81% 2.0 mph WSW3.2 kmh WSW 4.0 mph6.4 kmh 30.02 in1016.6 mb 0.00 in0.0 mm 0.00 in0.0 mm 0.00 in0.0 mm
04:03 AM 57.4°F14.1°C 51.4°F10.8°C 81% 1.0 mph WSW1.6 kmh WSW 4.0 mph6.4 kmh 30.02 in1016.6 mb 0.00 in0.0 mm 0.00 in0.0 mm 0.00 in0.0 mm
04:06 AM 57.4°F14.1°C 51.4°F10.8°C 81% 1.0 mph WSW1.6 kmh WSW 3.0 mph4.8 kmh 30.02 in1016.6 mb 0.00 in0.0 mm 0.00 in0.0 mm 0.00 in0.0 mm
04:09 AM 57.4°F14.1°C 51.4°F10.8°C 81% 2.0 mph WSW3.2 kmh WSW 6.0 mph9.7 kmh 30.02 in1016.6 mb 0.00 in0.0 mm 0.00 in0.0 mm 0.00 in0.0 mm
04:12 AM 57.4°F14.1°C 51.4°F10.8°C 81% 2.0 mph WSW3.2 kmh WSW 6.0 mph9.7 kmh 30.02 in1016.6 mb 0.00 in0.0 mm 0.00 in0.0 mm 0.00 in0.0 mm
04:15 AM 57.4°F14.1°C 51.4°F10.8°C 81% 3.0 mph WSW4.8 kmh WSW 6.0 mph9.7 kmh 30.02 in1016.6 mb 0.00 in0.0 mm 0.00 in0.0 mm 0.00 in0.0 mm
04:18 AM 57.4°F14.1°C 51.4°F10.8°C 81% 3.0 mph SW4.8 kmh SW 5.0 mph8.0 kmh 30.02 in1016.6 mb 0.00 in0.0 mm 0.00 in0.0 mm 0.00 in0.0 mm
04:21 AM 57.4°F14.1°C 51.4°F10.8°C 81% 2.0 mph SW3.2 kmh SW 5.0 mph8.0 kmh 30.02 in1016.6 mb 0.00 in0.0 mm 0.00 in0.0 mm 0.00 in0.0 mm
04:24 AM 57.4°F14.1°C 51.4°F10.8°C 81% 2.0 mph SW3.2 kmh SW 4.0 mph6.4 kmh 30.02 in1016.6 mb 0.00 in0.0 mm 0.00 in0.0 mm 0.00 in0.0 mm
04:27 AM 57.4°F14.1°C 51.4°F10.8°C 81% 2.0 mph SW3.2 kmh SW 4.0 mph6.4 kmh 30.02 in1016.6 mb 0.00 in0.0 mm 0.00 in0.0 mm 0.00 in0.0 mm
04:30 AM 57.4°F14.1°C 51.4°F10.8°C 81% 2.0 mph SW3.2 kmh SW 4.0 mph6.4 kmh 30.02 in1016.6 mb 0.00 in0.0 mm 0.00 in0.0 mm 0.00 in0.0 mm
04:33 AM 57.4°F14.1°C 51.4°F10.8°C 81% 1.0 mph WSW1.6 kmh WSW 4.0 mph6.4 kmh 30.02 in1016.6 mb 0.00 in0.0 mm 0.00 in0.0 mm 0.00 in0.0 mm
04:36 AM 57.4°F14.1°C 51.4°F10.8°C 81% 1.0 mph WSW1.6 kmh WSW 4.0 mph6.4 kmh 30.02 in1016.6 mb 0.00 in0.0 mm 0.00 in0.0 mm 0.00 in0.0 mm
04:39 AM 57.4°F14.1°C 51.4°F10.8°C 81% 1.0 mph SW1.6 kmh SW 4.0 mph6.4 kmh 30.02 in1016.6 mb 0.00 in0.0 mm 0.00 in0.0 mm 0.00 in0.0 mm
04:42 AM 57.4°F14.1°C 51.4°F10.8°C 81% 1.0 mph SSW1.6 kmh SSW 4.0 mph6.4 kmh 30.02 in1016.6 mb 0.00 in0.0 mm 0.00 in0.0 mm 0.00 in0.0 mm
04:45 AM 57.4°F14.1°C 51.4°F10.8°C 81% 2.0 mph SSW3.2 kmh SSW 4.0 mph6.4 kmh 30.02 in1016.6 mb 0.00 in0.0 mm 0.00 in0.0 mm 0.00 in0.0 mm
04:48 AM 57.4°F14.1°C 51.4°F10.8°C 81% 2.0 mph S3.2 kmh S 4.0 mph6.4 kmh 30.02 in1016.6 mb 0.00 in0.0 mm 0.00 in0.0 mm 0.00 in0.0 mm
04:51 AM 57.4°F14.1°C 51.4°F10.8°C 81% 2.0 mph S3.2 kmh S 5.0 mph8.0 kmh 30.02 in1016.6 mb 0.00 in0.0 mm 0.00 in0.0 mm 0.00 in0.0 mm
04:54 AM 57.4°F14.1°C 51.4°F10.8°C 81% 2.0 mph S3.2 kmh S 5.0 mph8.0 kmh 30.02 in1016.6 mb 0.00 in0.0 mm 0.00 in0.0 mm 0.00 in0.0 mm
04:57 AM 57.4°F14.1°C 51.4°F10.8°C 81% 3.0 mph S4.8 kmh S 6.0 mph9.7 kmh 30.02 in1016.6 mb 0.00 in0.0 mm 0.00 in0.0 mm 0.00 in0.0 mm
05:00 AM 57.4°F14.1°C 51.4°F10.8°C 81% 3.0 mph S4.8 kmh S 6.0 mph9.7 kmh 30.02 in1016.6 mb 0.00 in0.0 mm 0.00 in0.0 mm 0.00 in0.0 mm
05:03 AM 57.4°F14.1°C 51.4°F10.8°C 81% 4.0 mph S6.4 kmh S 8.0 mph12.9 kmh 30.01 in1016.3 mb 0.00 in0.0 mm 0.00 in0.0 mm 0.00 in0.0 mm
05:06 AM 57.4°F14.1°C 51.4°F10.8°C 81% 4.0 mph S6.4 kmh S 8.0 mph12.9 kmh 30.01 in1016.3 mb 0.00 in0.0 mm 0.00 in0.0 mm 0.00 in0.0 mm
05:09 AM 57.4°F14.1°C 51.4°F10.8°C 81% 3.0 mph S4.8 kmh S 9.0 mph14.5 kmh 30.02 in1016.6 mb 0.00 in0.0 mm 0.00 in0.0 mm 0.00 in0.0 mm
05:12 AM 57.4°F14.1°C 51.4°F10.8°C 81% 3.0 mph SSW4.8 kmh SSW 9.0 mph14.5 kmh 30.02 in1016.6 mb 0.00 in0.0 mm 0.00 in0.0 mm 0.00 in0.0 mm
05:15 AM 57.4°F14.1°C 51.4°F10.8°C 81% 3.0 mph SW4.8 kmh SW 9.0 mph14.5 kmh 30.01 in1016.3 mb 0.00 in0.0 mm 0.00 in0.0 mm 0.00 in0.0 mm
05:18 AM 57.4°F14.1°C 51.4°F10.8°C 81% 3.0 mph SSW4.8 kmh SSW 6.0 mph9.7 kmh 30.01 in1016.3 mb 0.00 in0.0 mm 0.00 in0.0 mm 0.00 in0.0 mm
05:21 AM 57.4°F14.1°C 51.4°F10.8°C 81% 3.0 mph SSW4.8 kmh SSW 6.0 mph9.7 kmh 30.01 in1016.3 mb 0.00 in0.0 mm 0.00 in0.0 mm 0.00 in0.0 mm
05:24 AM 57.4°F14.1°C 51.4°F10.8°C 81% 2.0 mph SSW3.2 kmh SSW 6.0 mph9.7 kmh 30.01 in1016.3 mb 0.00 in0.0 mm 0.00 in0.0 mm 0.00 in0.0 mm
05:27 AM 57.4°F14.1°C 51.4°F10.8°C 81% 2.0 mph SSW3.2 kmh SSW 5.0 mph8.0 kmh 30.02 in1016.6 mb 0.00 in0.0 mm 0.00 in0.0 mm 0.00 in0.0 mm
05:30 AM 57.4°F14.1°C 51.4°F10.8°C 81% 2.0 mph S3.2 kmh S 5.0 mph8.0 kmh 30.02 in1016.6 mb 0.00 in0.0 mm 0.00 in0.0 mm 0.00 in0.0 mm
05:33 AM 57.4°F14.1°C 51.4°F10.8°C 81% 2.0 mph SSW3.2 kmh SSW 5.0 mph8.0 kmh 30.02 in1016.6 mb 0.00 in0.0 mm 0.00 in0.0 mm 0.00 in0.0 mm
05:36 AM 57.4°F14.1°C 51.4°F10.8°C 81% 2.0 mph S3.2 kmh S 5.0 mph8.0 kmh 30.02 in1016.6 mb 0.00 in0.0 mm 0.00 in0.0 mm 0.00 in0.0 mm
05:39 AM 57.4°F14.1°C 51.4°F10.8°C 81% 3.0 mph S4.8 kmh S 5.0 mph8.0 kmh 30.02 in1016.6 mb 0.00 in0.0 mm 0.00 in0.0 mm 0.00 in0.0 mm
05:42 AM 57.4°F14.1°C 51.4°F10.8°C 81% 3.0 mph S4.8 kmh S 5.0 mph8.0 kmh 30.02 in1016.6 mb 0.00 in0.0 mm 0.00 in0.0 mm 0.00 in0.0 mm
05:45 AM 57.4°F14.1°C 51.4°F10.8°C 81% 3.0 mph S4.8 kmh S 5.0 mph8.0 kmh 30.01 in1016.3 mb 0.00 in0.0 mm 0.00 in0.0 mm 0.00 in0.0 mm
05:48 AM 57.4°F14.1°C 51.4°F10.8°C 81% 2.0 mph S3.2 kmh S 5.0 mph8.0 kmh 30.02 in1016.6 mb 0.00 in0.0 mm 0.00 in0.0 mm 0.00 in0.0 mm
05:51 AM 57.4°F14.1°C 51.4°F10.8°C 81% 2.0 mph S3.2 kmh S 6.0 mph9.7 kmh 30.02 in1016.6 mb 0.00 in0.0 mm 0.00 in0.0 mm 0.00 in0.0 mm
05:54 AM 57.4°F14.1°C 51.4°F10.8°C 81% 2.0 mph SSW3.2 kmh SSW 7.0 mph11.3 kmh 30.02 in1016.6 mb 0.00 in0.0 mm 0.00 in0.0 mm 0.00 in0.0 mm
05:57 AM 57.4°F14.1°C 51.4°F10.8°C 81% 3.0 mph SW4.8 kmh SW 8.0 mph12.9 kmh 30.02 in1016.6 mb 0.00 in0.0 mm 0.00 in0.0 mm 0.00 in0.0 mm
06:00 AM 57.4°F14.1°C 51.4°F10.8°C 81% 3.0 mph SW4.8 kmh SW 8.0 mph12.9 kmh 30.01 in1016.3 mb 0.00 in0.0 mm 0.00 in0.0 mm 0.00 in0.0 mm
06:03 AM 57.4°F14.1°C 51.4°F10.8°C 81% 3.0 mph SW4.8 kmh SW 8.0 mph12.9 kmh 30.02 in1016.6 mb 0.00 in0.0 mm 0.00 in0.0 mm 0.00 in0.0 mm
06:06 AM 57.4°F14.1°C 51.4°F10.8°C 81% 3.0 mph SSW4.8 kmh SSW 7.0 mph11.3 kmh 30.02 in1016.6 mb 0.00 in0.0 mm 0.00 in0.0 mm 0.00 in0.0 mm
06:09 AM 57.4°F14.1°C 51.4°F10.8°C 81% 3.0 mph SSW4.8 kmh SSW 7.0 mph11.3 kmh 30.02 in1016.6 mb 0.00 in0.0 mm 0.00 in0.0 mm 0.00 in0.0 mm
06:12 AM 57.4°F14.1°C 51.4°F10.8°C 81% 3.0 mph S4.8 kmh S 7.0 mph11.3 kmh 30.02 in1016.6 mb 0.00 in0.0 mm 0.00 in0.0 mm 0.00 in0.0 mm
06:15 AM 57.4°F14.1°C 51.4°F10.8°C 81% 4.0 mph S6.4 kmh S 8.0 mph12.9 kmh 30.02 in1016.6 mb 0.00 in0.0 mm 0.00 in0.0 mm 0.00 in0.0 mm
06:18 AM 57.4°F14.1°C 51.4°F10.8°C 81% 5.0 mph S8.0 kmh S 8.0 mph12.9 kmh 30.02 in1016.6 mb 0.00 in0.0 mm 0.00 in0.0 mm 0.00 in0.0 mm
06:21 AM 57.4°F14.1°C 51.4°F10.8°C 81% 5.0 mph S8.0 kmh S 8.0 mph12.9 kmh 30.02 in1016.6 mb 0.00 in0.0 mm 0.00 in0.0 mm 0.00 in0.0 mm
06:24 AM 57.4°F14.1°C 51.4°F10.8°C 81% 5.0 mph S8.0 kmh S 9.0 mph14.5 kmh 30.02 in1016.6 mb 0.00 in0.0 mm 0.00 in0.0 mm 0.00 in0.0 mm
06:27 AM 57.4°F14.1°C 51.4°F10.8°C 81% 5.0 mph S8.0 kmh S 9.0 mph14.5 kmh 30.02 in1016.6 mb 0.00 in0.0 mm 0.00 in0.0 mm 0.00 in0.0 mm
06:30 AM 57.4°F14.1°C 51.4°F10.8°C 81% 5.0 mph S8.0 kmh S 9.0 mph14.5 kmh 30.02 in1016.6 mb 0.00 in0.0 mm 0.00 in0.0 mm 0.00 in0.0 mm
06:33 AM 57.4°F14.1°C 51.4°F10.8°C 81% 5.0 mph S8.0 kmh S 9.0 mph14.5 kmh 30.02 in1016.6 mb 0.00 in0.0 mm 0.00 in0.0 mm 0.00 in0.0 mm
06:36 AM 57.4°F14.1°C 51.4°F10.8°C 81% 5.0 mph S8.0 kmh S 8.0 mph12.9 kmh 30.02 in1016.6 mb 0.00 in0.0 mm 0.00 in0.0 mm 0.00 in0.0 mm
06:39 AM 57.4°F14.1°C 51.4°F10.8°C 81% 5.0 mph SSE8.0 kmh SSE 8.0 mph12.9 kmh 30.02 in1016.6 mb 0.00 in0.0 mm 0.00 in0.0 mm 0.00 in0.0 mm
06:42 AM 57.4°F14.1°C 51.4°F10.8°C 81% 6.0 mph SSE9.7 kmh SSE 8.0 mph12.9 kmh 30.02 in1016.6 mb 0.00 in0.0 mm 0.00 in0.0 mm 0.00 in0.0 mm
06:45 AM 57.4°F14.1°C 51.4°F10.8°C 81% 5.0 mph SSE8.0 kmh SSE 9.0 mph14.5 kmh 30.01 in1016.3 mb 0.00 in0.0 mm 0.00 in0.0 mm 0.00 in0.0 mm
06:48 AM 57.4°F14.1°C 51.4°F10.8°C 81% 6.0 mph SSE9.7 kmh SSE 9.0 mph14.5 kmh 30.01 in1016.3 mb 0.00 in0.0 mm 0.00 in0.0 mm 0.00 in0.0 mm
06:51 AM 57.4°F14.1°C 51.4°F10.8°C 81% 6.0 mph SSE9.7 kmh SSE 10.0 mph16.1 kmh 30.01 in1016.3 mb 0.00 in0.0 mm 0.00 in0.0 mm 0.00 in0.0 mm
06:54 AM 57.4°F14.1°C 51.4°F10.8°C 81% 6.0 mph SSE9.7 kmh SSE 10.0 mph16.1 kmh 30.01 in1016.3 mb 0.00 in0.0 mm 0.00 in0.0 mm 0.00 in0.0 mm
06:57 AM 57.4°F14.1°C 51.4°F10.8°C 81% 7.0 mph SSE11.3 kmh SSE 10.0 mph16.1 kmh 30.01 in1016.3 mb 0.00 in0.0 mm 0.00 in0.0 mm 0.00 in0.0 mm
07:00 AM 57.4°F14.1°C 51.4°F10.8°C 81% 7.0 mph SSE11.3 kmh SSE 10.0 mph16.1 kmh 30.01 in1016.3 mb 0.00 in0.0 mm 0.00 in0.0 mm 0.00 in0.0 mm
07:03 AM 57.4°F14.1°C 51.4°F10.8°C 81% 6.0 mph SSE9.7 kmh SSE 10.0 mph16.1 kmh 30.01 in1016.3 mb 0.00 in0.0 mm 0.00 in0.0 mm 0.00 in0.0 mm
07:06 AM 57.4°F14.1°C 51.4°F10.8°C 81% 6.0 mph SSE9.7 kmh SSE 10.0 mph16.1 kmh 30.01 in1016.3 mb 0.00 in0.0 mm 0.00 in0.0 mm 0.00 in0.0 mm
07:09 AM 57.4°F14.1°C 51.4°F10.8°C 81% 5.0 mph S8.0 kmh S 9.0 mph14.5 kmh 30.01 in1016.3 mb 0.00 in0.0 mm 0.00 in0.0 mm 0.00 in0.0 mm
07:12 AM 57.4°F14.1°C 51.4°F10.8°C 81% 5.0 mph S8.0 kmh S 9.0 mph14.5 kmh 30.01 in1016.3 mb 0.00 in0.0 mm 0.00 in0.0 mm 0.00 in0.0 mm
07:15 AM 57.4°F14.1°C 51.4°F10.8°C 81% 5.0 mph S8.0 kmh S 9.0 mph14.5 kmh 30.01 in1016.3 mb 0.00 in0.0 mm 0.00 in0.0 mm 0.00 in0.0 mm
07:18 AM 57.4°F14.1°C 51.4°F10.8°C 81% 5.0 mph SSE8.0 kmh SSE 7.0 mph11.3 kmh 30.01 in1016.3 mb 0.00 in0.0 mm 0.00 in0.0 mm 0.00 in0.0 mm
07:21 AM 57.4°F14.1°C 51.4°F10.8°C 81% 4.0 mph S6.4 kmh S 7.0 mph11.3 kmh 30.01 in1016.3 mb 0.00 in0.0 mm 0.00 in0.0 mm 0.00 in0.0 mm
07:24 AM 57.4°F14.1°C 51.4°F10.8°C 81% 4.0 mph S6.4 kmh S 6.0 mph9.7 kmh 30.01 in1016.3 mb 0.00 in0.0 mm 0.00 in0.0 mm 0.00 in0.0 mm
07:27 AM 57.4°F14.1°C 51.4°F10.8°C 81% 4.0 mph S6.4 kmh S 6.0 mph9.7 kmh 30.01 in1016.3 mb 0.00 in0.0 mm 0.00 in0.0 mm 0.00 in0.0 mm
07:30 AM 57.4°F14.1°C 51.4°F10.8°C 81% 4.0 mph S6.4 kmh S 7.0 mph11.3 kmh 30.01 in1016.3 mb 0.00 in0.0 mm 0.00 in0.0 mm 0.00 in0.0 mm
07:33 AM 57.4°F14.1°C 51.4°F10.8°C 81% 3.0 mph S4.8 kmh S 7.0 mph11.3 kmh 30.01 in1016.3 mb 0.00 in0.0 mm 0.00 in0.0 mm 0.00 in0.0 mm
07:36 AM 57.4°F14.1°C 51.4°F10.8°C 81% 3.0 mph S4.8 kmh S 7.0 mph11.3 kmh 30.01 in1016.3 mb 0.00 in0.0 mm 0.00 in0.0 mm 0.00 in0.0 mm
07:39 AM 57.4°F14.1°C 51.4°F10.8°C 81% 3.0 mph S4.8 kmh S 6.0 mph9.7 kmh 30.01 in1016.3 mb 0.00 in0.0 mm 0.00 in0.0 mm 0.00 in0.0 mm
07:42 AM 57.4°F14.1°C 51.4°F10.8°C 81% 2.0 mph S3.2 kmh S 5.0 mph8.0 kmh 30.01 in1016.3 mb 0.00 in0.0 mm 0.00 in0.0 mm 0.00 in0.0 mm
07:45 AM 57.4°F14.1°C 51.4°F10.8°C 81% 1.0 mph SW1.6 kmh SW 3.0 mph4.8 kmh 30.02 in1016.6 mb 0.00 in0.0 mm 0.00 in0.0 mm 0.00 in0.0 mm
07:48 AM 57.4°F14.1°C 51.4°F10.8°C 81% 2.0 mph WSW3.2 kmh WSW 7.0 mph11.3 kmh 30.02 in1016.6 mb 0.00 in0.0 mm 0.00 in0.0 mm 0.00 in0.0 mm
07:51 AM 57.4°F14.1°C 51.4°F10.8°C 81% 2.0 mph SW3.2 kmh SW 7.0 mph11.3 kmh 30.02 in1016.6 mb 0.00 in0.0 mm 0.00 in0.0 mm 0.00 in0.0 mm
07:54 AM 57.4°F14.1°C 51.4°F10.8°C 81% 2.0 mph SW3.2 kmh SW 7.0 mph11.3 kmh 30.02 in1016.6 mb 0.00 in0.0 mm 0.00 in0.0 mm 0.00 in0.0 mm
07:57 AM 57.4°F14.1°C 51.4°F10.8°C 81% 3.0 mph SW4.8 kmh SW 7.0 mph11.3 kmh 30.01 in1016.3 mb 0.00 in0.0 mm 0.00 in0.0 mm 0.00 in0.0 mm
08:00 AM 57.4°F14.1°C 51.4°F10.8°C 81% 3.0 mph SW4.8 kmh SW 6.0 mph9.7 kmh 30.02 in1016.6 mb 0.00 in0.0 mm 0.00 in0.0 mm 0.00 in0.0 mm
08:03 AM 57.4°F14.1°C 51.4°F10.8°C 81% 3.0 mph SW4.8 kmh SW 6.0 mph9.7 kmh 30.02 in1016.6 mb 0.00 in0.0 mm 0.00 in0.0 mm 0.00 in0.0 mm
08:06 AM 57.4°F14.1°C 51.4°F10.8°C 81% 3.0 mph WSW4.8 kmh WSW 6.0 mph9.7 kmh 30.02 in1016.6 mb 0.00 in0.0 mm 0.00 in0.0 mm 0.00 in0.0 mm
08:09 AM 57.4°F14.1°C 51.4°F10.8°C 81% 2.0 mph WSW3.2 kmh WSW 6.0 mph9.7 kmh 30.02 in1016.6 mb 0.00 in0.0 mm 0.00 in0.0 mm 0.00 in0.0 mm
08:12 AM 57.4°F14.1°C 51.4°F10.8°C 81% 3.0 mph WSW4.8 kmh WSW 6.0 mph9.7 kmh 30.02 in1016.6 mb 0.00 in0.0 mm 0.00 in0.0 mm 0.00 in0.0 mm
08:15 AM 57.4°F14.1°C 51.4°F10.8°C 81% 3.0 mph WSW4.8 kmh WSW 7.0 mph11.3 kmh 30.02 in1016.6 mb 0.00 in0.0 mm 0.00 in0.0 mm 0.00 in0.0 mm
08:18 AM 57.4°F14.1°C 51.4°F10.8°C 81% 2.0 mph WSW3.2 kmh WSW 7.0 mph11.3 kmh 30.02 in1016.6 mb 0.00 in0.0 mm 0.00 in0.0 mm 0.00 in0.0 mm
08:21 AM 59.2°F15.1°C 58.1°F14.5°C 96% 2.0 mph WSW3.2 kmh WSW 7.0 mph11.3 kmh 30.02 in1016.6 mb 0.00 in0.0 mm 0.00 in0.0 mm 0.00 in0.0 mm
08:24 AM 59.5°F15.3°C 58.3°F14.6°C 96% 2.0 mph SW3.2 kmh SW 5.0 mph8.0 kmh 30.02 in1016.6 mb 0.00 in0.0 mm 0.00 in0.0 mm 0.00 in0.0 mm
08:27 AM 59.7°F15.4°C 58.3°F14.6°C 95% 2.0 mph WSW3.2 kmh WSW 5.0 mph8.0 kmh 30.01 in1016.3 mb 0.00 in0.0 mm 0.00 in0.0 mm 0.00 in0.0 mm
08:30 AM 60.1°F15.6°C 58.6°F14.8°C 95% 2.0 mph WSW3.2 kmh WSW 6.0 mph9.7 kmh 30.01 in1016.3 mb 0.00 in0.0 mm 0.00 in0.0 mm 0.00 in0.0 mm
08:33 AM 60.3°F15.7°C 58.8°F14.9°C 95% 3.0 mph WSW4.8 kmh WSW 10.0 mph16.1 kmh 30.02 in1016.6 mb 0.00 in0.0 mm 0.00 in0.0 mm 0.00 in0.0 mm
08:36 AM 60.6°F15.9°C 59.2°F15.1°C 95% 3.0 mph WSW4.8 kmh WSW 10.0 mph16.1 kmh 30.02 in1016.6 mb 0.00 in0.0 mm 0.00 in0.0 mm 0.00 in0.0 mm
08:39 AM 60.8°F16.0°C 59.4°F15.2°C 95% 3.0 mph WSW4.8 kmh WSW 10.0 mph16.1 kmh 30.02 in1016.6 mb 0.00 in0.0 mm 0.00 in0.0 mm 0.00 in0.0 mm
08:42 AM 61.2°F16.2°C 59.7°F15.4°C 95% 4.0 mph WSW6.4 kmh WSW 10.0 mph16.1 kmh 30.02 in1016.6 mb 0.00 in0.0 mm 0.00 in0.0 mm 0.00 in0.0 mm
08:45 AM 61.3°F16.3°C 59.7°F15.4°C 94% 4.0 mph WSW6.4 kmh WSW 8.0 mph12.9 kmh 30.01 in1016.3 mb 0.00 in0.0 mm 0.00 in0.0 mm 0.00 in0.0 mm
08:48 AM 61.5°F16.4°C 59.9°F15.5°C 94% 4.0 mph WSW6.4 kmh WSW 9.0 mph14.5 kmh 30.01 in1016.3 mb 0.00 in0.0 mm 0.00 in0.0 mm 0.00 in0.0 mm
08:51 AM 61.9°F16.6°C 60.1°F15.6°C 94% 4.0 mph SW6.4 kmh SW 9.0 mph14.5 kmh 30.02 in1016.6 mb 0.00 in0.0 mm 0.00 in0.0 mm 0.00 in0.0 mm
08:54 AM 62.1°F16.7°C 59.9°F15.5°C 93% 4.0 mph WSW6.4 kmh WSW 10.0 mph16.1 kmh 30.02 in1016.6 mb 0.00 in0.0 mm 0.00 in0.0 mm 0.00 in0.0 mm
08:57 AM 62.2°F16.8°C 59.9°F15.5°C 92% 4.0 mph WSW6.4 kmh WSW 12.0 mph19.3 kmh 30.02 in1016.6 mb 0.00 in0.0 mm 0.00 in0.0 mm 0.00 in0.0 mm
09:00 AM 62.2°F16.8°C 59.9°F15.5°C 92% 5.0 mph WSW8.0 kmh WSW 12.0 mph19.3 kmh 30.02 in1016.6 mb 0.00 in0.0 mm 0.00 in0.0 mm 0.00 in0.0 mm
09:03 AM 62.4°F16.9°C 60.1°F15.6°C 92% 5.0 mph WSW8.0 kmh WSW 12.0 mph19.3 kmh 30.01 in1016.3 mb 0.00 in0.0 mm 0.00 in0.0 mm 0.00 in0.0 mm
09:06 AM 62.4°F16.9°C 59.9°F15.5°C 91% 6.0 mph WSW9.7 kmh WSW 12.0 mph19.3 kmh 30.01 in1016.3 mb 0.00 in0.0 mm 0.00 in0.0 mm 0.00 in0.0 mm
09:09 AM 62.8°F17.1°C 60.1°F15.6°C 91% 6.0 mph WSW9.7 kmh WSW 12.0 mph19.3 kmh 30.01 in1016.3 mb 0.00 in0.0 mm 0.00 in0.0 mm 0.00 in0.0 mm
09:12 AM 63.0°F17.2°C 60.3°F15.7°C 91% 7.0 mph WSW11.3 kmh WSW 12.0 mph19.3 kmh 30.01 in1016.3 mb 0.00 in0.0 mm 0.00 in0.0 mm 0.00 in0.0 mm
09:15 AM 63.1°F17.3°C 60.1°F15.6°C 90% 7.0 mph WSW11.3 kmh WSW 14.0 mph22.5 kmh 30.01 in1016.3 mb 0.00 in0.0 mm 0.00 in0.0 mm 0.00 in0.0 mm
09:18 AM 63.1°F17.3°C 60.3°F15.7°C 90% 7.0 mph WSW11.3 kmh WSW 16.0 mph25.7 kmh 30.02 in1016.6 mb 0.00 in0.0 mm 0.00 in0.0 mm 0.00 in0.0 mm
09:21 AM 63.3°F17.4°C 60.1°F15.6°C 89% 7.0 mph WSW11.3 kmh WSW 16.0 mph25.7 kmh 30.01 in1016.3 mb 0.00 in0.0 mm 0.00 in0.0 mm 0.00 in0.0 mm
09:24 AM 63.3°F17.4°C 60.1°F15.6°C 89% 7.0 mph WSW11.3 kmh WSW 16.0 mph25.7 kmh 30.02 in1016.6 mb 0.00 in0.0 mm 0.00 in0.0 mm 0.00 in0.0 mm
09:27 AM 63.3°F17.4°C 59.7°F15.4°C 88% 7.0 mph WSW11.3 kmh WSW 14.0 mph22.5 kmh 30.01 in1016.3 mb 0.00 in0.0 mm 0.00 in0.0 mm 0.00 in0.0 mm
09:30 AM 63.3°F17.4°C 59.7°F15.4°C 88% 6.0 mph WSW9.7 kmh WSW 14.0 mph22.5 kmh 30.01 in1016.3 mb 0.00 in0.0 mm 0.00 in0.0 mm 0.00 in0.0 mm
09:33 AM 63.7°F17.6°C 60.3°F15.7°C 89% 6.0 mph WSW9.7 kmh WSW 14.0 mph22.5 kmh 30.01 in1016.3 mb 0.00 in0.0 mm 0.00 in0.0 mm 0.00 in0.0 mm
09:36 AM 64.0°F17.8°C 60.6°F15.9°C 89% 5.0 mph WSW8.0 kmh WSW 14.0 mph22.5 kmh 30.01 in1016.3 mb 0.00 in0.0 mm 0.00 in0.0 mm 0.00 in0.0 mm
09:39 AM 64.2°F17.9°C 60.6°F15.9°C 88% 6.0 mph WSW9.7 kmh WSW 15.0 mph24.1 kmh 30.01 in1016.3 mb 0.00 in0.0 mm 0.00 in0.0 mm 0.00 in0.0 mm
09:42 AM 64.6°F18.1°C 60.6°F15.9°C 87% 6.0 mph WSW9.7 kmh WSW 15.0 mph24.1 kmh 30.01 in1016.3 mb 0.00 in0.0 mm 0.00 in0.0 mm 0.00 in0.0 mm
09:45 AM 64.8°F18.2°C 60.8°F16.0°C 87% 7.0 mph WSW11.3 kmh WSW 15.0 mph24.1 kmh 30.01 in1016.3 mb 0.00 in0.0 mm 0.00 in0.0 mm 0.00 in0.0 mm
09:48 AM 64.9°F18.3°C 60.6°F15.9°C 86% 7.0 mph WSW11.3 kmh WSW 15.0 mph24.1 kmh 30.01 in1016.3 mb 0.00 in0.0 mm 0.00 in0.0 mm 0.00 in0.0 mm
09:51 AM 65.1°F18.4°C 61.0°F16.1°C 86% 6.0 mph WSW9.7 kmh WSW 15.0 mph24.1 kmh 30.01 in1016.3 mb 0.00 in0.0 mm 0.00 in0.0 mm 0.00 in0.0 mm
09:54 AM 65.5°F18.6°C 61.2°F16.2°C 86% 6.0 mph WSW9.7 kmh WSW 14.0 mph22.5 kmh 30.01 in1016.3 mb 0.00 in0.0 mm 0.00 in0.0 mm 0.00 in0.0 mm
09:57 AM 65.7°F18.7°C 61.0°F16.1°C 85% 7.0 mph WSW11.3 kmh WSW 17.0 mph27.4 kmh 30.01 in1016.3 mb 0.00 in0.0 mm 0.00 in0.0 mm 0.00 in0.0 mm
10:00 AM 65.7°F18.7°C 60.8°F16.0°C 84% 7.0 mph WSW11.3 kmh WSW 17.0 mph27.4 kmh 30.01 in1016.3 mb 0.00 in0.0 mm 0.00 in0.0 mm 0.00 in0.0 mm
10:03 AM 66.0°F18.9°C 61.3°F16.3°C 85% 7.0 mph WSW11.3 kmh WSW 17.0 mph27.4 kmh 30.01 in1016.3 mb 0.00 in0.0 mm 0.00 in0.0 mm 0.00 in0.0 mm
10:06 AM 66.2°F19.0°C 61.2°F16.2°C 84% 7.0 mph WSW11.3 kmh WSW 14.0 mph22.5 kmh 30.01 in1016.3 mb 0.00 in0.0 mm 0.00 in0.0 mm 0.00 in0.0 mm
10:09 AM 66.4°F19.1°C 61.2°F16.2°C 83% 7.0 mph WSW11.3 kmh WSW 14.0 mph22.5 kmh 30.01 in1016.3 mb 0.00 in0.0 mm 0.00 in0.0 mm 0.00 in0.0 mm
10:12 AM 66.7°F19.3°C 61.3°F16.3°C 83% 7.0 mph WSW11.3 kmh WSW 14.0 mph22.5 kmh 30.01 in1016.3 mb 0.00 in0.0 mm 0.00 in0.0 mm 0.00 in0.0 mm
10:15 AM 66.9°F19.4°C 61.2°F16.2°C 82% 7.0 mph WSW11.3 kmh WSW 18.0 mph29.0 kmh 30.01 in1016.3 mb 0.00 in0.0 mm 0.00 in0.0 mm 0.00 in0.0 mm
10:18 AM 66.9°F19.4°C 60.8°F16.0°C 81% 7.0 mph WSW11.3 kmh WSW 18.0 mph29.0 kmh 30.01 in1016.3 mb 0.00 in0.0 mm 0.00 in0.0 mm 0.00 in0.0 mm
10:21 AM 66.7°F19.3°C 60.6°F15.9°C 81% 7.0 mph WSW11.3 kmh WSW 18.0 mph29.0 kmh 30.01 in1016.3 mb 0.00 in0.0 mm 0.00 in0.0 mm 0.00 in0.0 mm
10:24 AM 66.6°F19.2°C 60.6°F15.9°C 81% 8.0 mph WSW12.9 kmh WSW 18.0 mph29.0 kmh 30.01 in1016.3 mb 0.00 in0.0 mm 0.00 in0.0 mm 0.00 in0.0 mm
10:27 AM 66.4°F19.1°C 60.8°F16.0°C 82% 7.0 mph WSW11.3 kmh WSW 15.0 mph24.1 kmh 30.02 in1016.6 mb 0.00 in0.0 mm 0.00 in0.0 mm 0.00 in0.0 mm
10:30 AM 66.4°F19.1°C 60.6°F15.9°C 82% 7.0 mph WSW11.3 kmh WSW 15.0 mph24.1 kmh 30.01 in1016.3 mb 0.00 in0.0 mm 0.00 in0.0 mm 0.00 in0.0 mm
10:33 AM 66.4°F19.1°C 60.6°F15.9°C 82% 6.0 mph WSW9.7 kmh WSW 15.0 mph24.1 kmh 30.01 in1016.3 mb 0.00 in0.0 mm 0.00 in0.0 mm 0.00 in0.0 mm
10:36 AM 66.4°F19.1°C 60.6°F15.9°C 82% 6.0 mph WSW9.7 kmh WSW 14.0 mph22.5 kmh 30.01 in1016.3 mb 0.00 in0.0 mm 0.00 in0.0 mm 0.00 in0.0 mm
10:39 AM 66.6°F19.2°C 61.2°F16.2°C 83% 6.0 mph WSW9.7 kmh WSW 14.0 mph22.5 kmh 30.01 in1016.3 mb 0.00 in0.0 mm 0.00 in0.0 mm 0.00 in0.0 mm
10:42 AM 66.7°F19.3°C 61.5°F16.4°C 83% 6.0 mph WSW9.7 kmh WSW 14.0 mph22.5 kmh 30.01 in1016.3 mb 0.00 in0.0 mm 0.00 in0.0 mm 0.00 in0.0 mm
10:45 AM 67.5°F19.7°C 62.1°F16.7°C 83% 7.0 mph WSW11.3 kmh WSW 17.0 mph27.4 kmh 30.01 in1016.3 mb 0.00 in0.0 mm 0.00 in0.0 mm 0.00 in0.0 mm
10:48 AM 68.2°F20.1°C 62.8°F17.1°C 83% 7.0 mph WSW11.3 kmh WSW 17.0 mph27.4 kmh 30.01 in1016.3 mb 0.00 in0.0 mm 0.00 in0.0 mm 0.00 in0.0 mm
10:51 AM 68.4°F20.2°C 62.4°F16.9°C 81% 8.0 mph WSW12.9 kmh WSW 18.0 mph29.0 kmh 30.01 in1016.3 mb 0.00 in0.0 mm 0.00 in0.0 mm 0.00 in0.0 mm
10:54 AM 68.7°F20.4°C 62.2°F16.8°C 80% 8.0 mph WSW12.9 kmh WSW 18.0 mph29.0 kmh 30.01 in1016.3 mb 0.00 in0.0 mm 0.00 in0.0 mm 0.00 in0.0 mm
10:57 AM 68.7°F20.4°C 61.9°F16.6°C 79% 8.0 mph WSW12.9 kmh WSW 18.0 mph29.0 kmh 30.01 in1016.3 mb 0.00 in0.0 mm 0.00 in0.0 mm 0.00 in0.0 mm
11:00 AM 68.5°F20.3°C 61.9°F16.6°C 79% 7.0 mph WSW11.3 kmh WSW 18.0 mph29.0 kmh 30.01 in1016.3 mb 0.00 in0.0 mm 0.00 in0.0 mm 0.00 in0.0 mm
11:03 AM 68.4°F20.2°C 62.1°F16.7°C 80% 7.0 mph WSW11.3 kmh WSW 18.0 mph29.0 kmh 30.01 in1016.3 mb 0.00 in0.0 mm 0.00 in0.0 mm 0.00 in0.0 mm
11:06 AM 68.5°F20.3°C 62.1°F16.7°C 80% 7.0 mph SW11.3 kmh SW 17.0 mph27.4 kmh 30.00 in1015.9 mb 0.00 in0.0 mm 0.00 in0.0 mm 0.00 in0.0 mm
11:09 AM 68.4°F20.2°C 62.1°F16.7°C 80% 8.0 mph SW12.9 kmh SW 20.0 mph32.2 kmh 30.00 in1015.9 mb 0.00 in0.0 mm 0.00 in0.0 mm 0.00 in0.0 mm
11:12 AM 68.4°F20.2°C 61.9°F16.6°C 80% 9.0 mph SW14.5 kmh SW 20.0 mph32.2 kmh 30.00 in1015.9 mb 0.00 in0.0 mm 0.00 in0.0 mm 0.00 in0.0 mm
11:15 AM 68.4°F20.2°C 62.1°F16.7°C 80% 9.0 mph SW14.5 kmh SW 20.0 mph32.2 kmh 30.00 in1015.9 mb 0.00 in0.0 mm 0.00 in0.0 mm 0.00 in0.0 mm
11:18 AM 68.5°F20.3°C 62.6°F17.0°C 81% 8.0 mph SW12.9 kmh SW 20.0 mph32.2 kmh 30.00 in1015.9 mb 0.00 in0.0 mm 0.00 in0.0 mm 0.00 in0.0 mm
11:21 AM 68.7°F20.4°C 62.4°F16.9°C 80% 8.0 mph SW12.9 kmh SW 20.0 mph32.2 kmh 30.01 in1016.3 mb 0.00 in0.0 mm 0.00 in0.0 mm 0.00 in0.0 mm
11:24 AM 69.1°F20.6°C 62.6°F17.0°C 80% 8.0 mph SW12.9 kmh SW 19.0 mph30.6 kmh 30.01 in1016.3 mb 0.00 in0.0 mm 0.00 in0.0 mm 0.00 in0.0 mm
11:27 AM 69.1°F20.6°C 62.2°F16.8°C 79% 8.0 mph SW12.9 kmh SW 19.0 mph30.6 kmh 30.00 in1015.9 mb 0.00 in0.0 mm 0.00 in0.0 mm 0.00 in0.0 mm
11:30 AM 69.3°F20.7°C 62.4°F16.9°C 79% 8.0 mph SW12.9 kmh SW 19.0 mph30.6 kmh 30.01 in1016.3 mb 0.00 in0.0 mm 0.00 in0.0 mm 0.00 in0.0 mm
11:33 AM 69.3°F20.7°C 62.4°F16.9°C 79% 8.0 mph SW12.9 kmh SW 16.0 mph25.7 kmh 30.00 in1015.9 mb 0.00 in0.0 mm 0.00 in0.0 mm 0.00 in0.0 mm
11:36 AM 69.4°F20.8°C 62.6°F17.0°C 79% 8.0 mph SW12.9 kmh SW 17.0 mph27.4 kmh 30.00 in1015.9 mb 0.00 in0.0 mm 0.00 in0.0 mm 0.00 in0.0 mm
11:39 AM 69.4°F20.8°C 62.6°F17.0°C 79% 9.0 mph SW14.5 kmh SW 17.0 mph27.4 kmh 30.00 in1015.9 mb 0.00 in0.0 mm 0.00 in0.0 mm 0.00 in0.0 mm
11:42 AM 69.6°F20.9°C 62.8°F17.1°C 79% 9.0 mph SW14.5 kmh SW 17.0 mph27.4 kmh 30.00 in1015.9 mb 0.00 in0.0 mm 0.00 in0.0 mm 0.00 in0.0 mm
11:45 AM 69.6°F20.9°C 63.0°F17.2°C 79% 9.0 mph SW14.5 kmh SW 18.0 mph29.0 kmh 30.00 in1015.9 mb 0.00 in0.0 mm 0.00 in0.0 mm 0.00 in0.0 mm
11:48 AM 69.8°F21.0°C 62.6°F17.0°C 78% 9.0 mph WSW14.5 kmh WSW 18.0 mph29.0 kmh 30.00 in1015.9 mb 0.00 in0.0 mm 0.00 in0.0 mm 0.00 in0.0 mm
11:51 AM 70.0°F21.1°C 62.8°F17.1°C 78% 8.0 mph WSW12.9 kmh WSW 18.0 mph29.0 kmh 30.00 in1015.9 mb 0.00 in0.0 mm 0.00 in0.0 mm 0.00 in0.0 mm
11:54 AM 70.0°F21.1°C 62.8°F17.1°C 78% 8.0 mph WSW12.9 kmh WSW 18.0 mph29.0 kmh 30.00 in1015.9 mb 0.00 in0.0 mm 0.00 in0.0 mm 0.00 in0.0 mm
11:57 AM 70.2°F21.2°C 63.0°F17.2°C 78% 8.0 mph WSW12.9 kmh WSW 18.0 mph29.0 kmh 30.00 in1015.9 mb 0.00 in0.0 mm 0.00 in0.0 mm 0.00 in0.0 mm
12:00 PM 70.3°F21.3°C 63.1°F17.3°C 78% 8.0 mph WSW12.9 kmh WSW 18.0 mph29.0 kmh 30.00 in1015.9 mb 0.00 in0.0 mm 0.00 in0.0 mm 0.00 in0.0 mm
12:03 PM 70.5°F21.4°C 63.3°F17.4°C 78% 8.0 mph SW12.9 kmh SW 17.0 mph27.4 kmh 30.00 in1015.9 mb 0.00 in0.0 mm 0.00 in0.0 mm 0.00 in0.0 mm
12:06 PM 70.5°F21.4°C 63.0°F17.2°C 77% 8.0 mph SW12.9 kmh SW 19.0 mph30.6 kmh 30.00 in1015.9 mb 0.00 in0.0 mm 0.00 in0.0 mm 0.00 in0.0 mm
12:09 PM 70.5°F21.4°C 63.0°F17.2°C 77% 8.0 mph SW12.9 kmh SW 19.0 mph30.6 kmh 30.00 in1015.9 mb 0.00 in0.0 mm 0.00 in0.0 mm 0.00 in0.0 mm
12:12 PM 70.3°F21.3°C 62.8°F17.1°C 77% 7.0 mph SW11.3 kmh SW 19.0 mph30.6 kmh 30.00 in1015.9 mb 0.00 in0.0 mm 0.00 in0.0 mm 0.00 in0.0 mm
12:15 PM 70.2°F21.2°C 62.6°F17.0°C 77% 7.0 mph SW11.3 kmh SW 16.0 mph25.7 kmh 30.00 in1015.9 mb 0.00 in0.0 mm 0.00 in0.0 mm 0.00 in0.0 mm
12:18 PM 70.2°F21.2°C 63.0°F17.2°C 78% 8.0 mph WSW12.9 kmh WSW 16.0 mph25.7 kmh 30.00 in1015.9 mb 0.00 in0.0 mm 0.00 in0.0 mm 0.00 in0.0 mm
12:21 PM 70.2°F21.2°C 63.0°F17.2°C 78% 8.0 mph WSW12.9 kmh WSW 19.0 mph30.6 kmh 30.00 in1015.9 mb 0.00 in0.0 mm 0.00 in0.0 mm 0.00 in0.0 mm
12:24 PM 70.3°F21.3°C 63.1°F17.3°C 78% 8.0 mph WSW12.9 kmh WSW 19.0 mph30.6 kmh 30.00 in1015.9 mb 0.00 in0.0 mm 0.00 in0.0 mm 0.00 in0.0 mm
12:27 PM 70.3°F21.3°C 62.8°F17.1°C 77% 7.0 mph WSW11.3 kmh WSW 19.0 mph30.6 kmh 30.00 in1015.9 mb 0.00 in0.0 mm 0.00 in0.0 mm 0.00 in0.0 mm
12:30 PM 70.2°F21.2°C 62.6°F17.0°C 77% 7.0 mph WSW11.3 kmh WSW 15.0 mph24.1 kmh 30.00 in1015.9 mb 0.00 in0.0 mm 0.00 in0.0 mm 0.00 in0.0 mm
12:33 PM 70.0°F21.1°C 62.8°F17.1°C 78% 7.0 mph WSW11.3 kmh WSW 15.0 mph24.1 kmh 30.00 in1015.9 mb 0.00 in0.0 mm 0.00 in0.0 mm 0.00 in0.0 mm
12:36 PM 70.0°F21.1°C 62.8°F17.1°C 78% 8.0 mph WSW12.9 kmh WSW 16.0 mph25.7 kmh 30.00 in1015.9 mb 0.00 in0.0 mm 0.00 in0.0 mm 0.00 in0.0 mm
12:39 PM 70.0°F21.1°C 63.1°F17.3°C 79% 7.0 mph WSW11.3 kmh WSW 16.0 mph25.7 kmh 30.00 in1015.9 mb 0.00 in0.0 mm 0.00 in0.0 mm 0.00 in0.0 mm
12:42 PM 70.0°F21.1°C 62.8°F17.1°C 78% 7.0 mph WSW11.3 kmh WSW 16.0 mph25.7 kmh 30.00 in1015.9 mb 0.00 in0.0 mm 0.00 in0.0 mm 0.00 in0.0 mm
12:45 PM 69.6°F20.9°C 62.6°F17.0°C 78% 6.0 mph WSW9.7 kmh WSW 16.0 mph25.7 kmh 30.00 in1015.9 mb 0.00 in0.0 mm 0.00 in0.0 mm 0.00 in0.0 mm
12:48 PM 69.4°F20.8°C 62.8°F17.1°C 79% 7.0 mph SW11.3 kmh SW 15.0 mph24.1 kmh 30.00 in1015.9 mb 0.00 in0.0 mm 0.00 in0.0 mm 0.00 in0.0 mm
12:51 PM 69.4°F20.8°C 62.6°F17.0°C 79% 7.0 mph WSW11.3 kmh WSW 17.0 mph27.4 kmh 30.00 in1015.9 mb 0.00 in0.0 mm 0.00 in0.0 mm 0.00 in0.0 mm
12:54 PM 69.3°F20.7°C 62.4°F16.9°C 79% 8.0 mph WSW12.9 kmh WSW 17.0 mph27.4 kmh 30.00 in1015.9 mb 0.00 in0.0 mm 0.00 in0.0 mm 0.00 in0.0 mm
12:57 PM 69.3°F20.7°C 62.8°F17.1°C 80% 9.0 mph WSW14.5 kmh WSW 17.0 mph27.4 kmh 30.00 in1015.9 mb 0.00 in0.0 mm 0.00 in0.0 mm 0.00 in0.0 mm
01:00 PM 69.6°F20.9°C 63.3°F17.4°C 80% 10.0 mph WSW16.1 kmh WSW 17.0 mph27.4 kmh 30.00 in1015.9 mb 0.00 in0.0 mm 0.00 in0.0 mm 0.00 in0.0 mm
01:03 PM 70.0°F21.1°C 63.1°F17.3°C 79% 9.0 mph WSW14.5 kmh WSW 17.0 mph27.4 kmh 30.00 in1015.9 mb 0.00 in0.0 mm 0.00 in0.0 mm 0.00 in0.0 mm
01:06 PM 70.0°F21.1°C 62.8°F17.1°C 78% 8.0 mph SW12.9 kmh SW 17.0 mph27.4 kmh 30.00 in1015.9 mb 0.00 in0.0 mm 0.00 in0.0 mm 0.00 in0.0 mm
01:09 PM 69.8°F21.0°C 62.2°F16.8°C 77% 8.0 mph SW12.9 kmh SW 17.0 mph27.4 kmh 30.00 in1015.9 mb 0.00 in0.0 mm 0.00 in0.0 mm 0.00 in0.0 mm
01:12 PM 69.8°F21.0°C 62.6°F17.0°C 78% 8.0 mph WSW12.9 kmh WSW 16.0 mph25.7 kmh 30.00 in1015.9 mb 0.00 in0.0 mm 0.00 in0.0 mm 0.00 in0.0 mm
01:15 PM 70.2°F21.2°C 63.3°F17.4°C 79% 8.0 mph WSW12.9 kmh WSW 16.0 mph25.7 kmh 30.00 in1015.9 mb 0.00 in0.0 mm 0.00 in0.0 mm 0.00 in0.0 mm
01:18 PM 70.3°F21.3°C 63.5°F17.5°C 79% 8.0 mph WSW12.9 kmh WSW 17.0 mph27.4 kmh 30.00 in1015.9 mb 0.00 in0.0 mm 0.00 in0.0 mm 0.00 in0.0 mm
01:21 PM 70.3°F21.3°C 63.1°F17.3°C 78% 8.0 mph WSW12.9 kmh WSW 17.0 mph27.4 kmh 30.00 in1015.9 mb 0.00 in0.0 mm 0.00 in0.0 mm 0.00 in0.0 mm
01:24 PM 70.3°F21.3°C 63.1°F17.3°C 78% 8.0 mph WSW12.9 kmh WSW 23.0 mph37.0 kmh 30.00 in1015.9 mb 0.00 in0.0 mm 0.00 in0.0 mm 0.00 in0.0 mm
01:27 PM 70.2°F21.2°C 63.0°F17.2°C 78% 9.0 mph WSW14.5 kmh WSW 23.0 mph37.0 kmh 30.00 in1015.9 mb 0.00 in0.0 mm 0.00 in0.0 mm 0.00 in0.0 mm
01:30 PM 70.0°F21.1°C 62.4°F16.9°C 77% 9.0 mph WSW14.5 kmh WSW 23.0 mph37.0 kmh 30.00 in1015.9 mb 0.00 in0.0 mm 0.00 in0.0 mm 0.00 in0.0 mm
01:33 PM 69.8°F21.0°C 62.6°F17.0°C 78% 8.0 mph WSW12.9 kmh WSW 23.0 mph37.0 kmh 30.00 in1015.9 mb 0.00 in0.0 mm 0.00 in0.0 mm 0.00 in0.0 mm
01:36 PM 69.4°F20.8°C 62.4°F16.9°C 78% 8.0 mph WSW12.9 kmh WSW 15.0 mph24.1 kmh 30.00 in1015.9 mb 0.00 in0.0 mm 0.00 in0.0 mm 0.00 in0.0 mm
01:39 PM 69.3°F20.7°C 62.1°F16.7°C 78% 8.0 mph WSW12.9 kmh WSW 15.0 mph24.1 kmh 30.00 in1015.9 mb 0.00 in0.0 mm 0.00 in0.0 mm 0.00 in0.0 mm
01:42 PM 69.1°F20.6°C 61.9°F16.6°C 78% 8.0 mph WSW12.9 kmh WSW 17.0 mph27.4 kmh 30.00 in1015.9 mb 0.00 in0.0 mm 0.00 in0.0 mm 0.00 in0.0 mm
01:45 PM 68.7°F20.4°C 61.7°F16.5°C 78% 9.0 mph WSW14.5 kmh WSW 17.0 mph27.4 kmh 30.00 in1015.9 mb 0.00 in0.0 mm 0.00 in0.0 mm 0.00 in0.0 mm
01:48 PM 68.7°F20.4°C 62.1°F16.7°C 79% 9.0 mph WSW14.5 kmh WSW 17.0 mph27.4 kmh 30.01 in1016.3 mb 0.00 in0.0 mm 0.00 in0.0 mm 0.00 in0.0 mm
01:51 PM 68.7°F20.4°C 62.1°F16.7°C 79% 10.0 mph WSW16.1 kmh WSW 17.0 mph27.4 kmh 30.00 in1015.9 mb 0.00 in0.0 mm 0.00 in0.0 mm 0.00 in0.0 mm
01:54 PM 68.7°F20.4°C 61.9°F16.6°C 79% 9.0 mph WSW14.5 kmh WSW 17.0 mph27.4 kmh 30.01 in1016.3 mb 0.00 in0.0 mm 0.00 in0.0 mm 0.00 in0.0 mm
01:57 PM 68.9°F20.5°C 62.4°F16.9°C 80% 9.0 mph WSW14.5 kmh WSW 17.0 mph27.4 kmh 30.00 in1015.9 mb 0.00 in0.0 mm 0.00 in0.0 mm 0.00 in0.0 mm
02:00 PM 68.7°F20.4°C 62.1°F16.7°C 79% 8.0 mph WSW12.9 kmh WSW 16.0 mph25.7 kmh 30.00 in1015.9 mb 0.00 in0.0 mm 0.00 in0.0 mm 0.00 in0.0 mm
02:03 PM 68.7°F20.4°C 62.2°F16.8°C 80% 8.0 mph WSW12.9 kmh WSW 16.0 mph25.7 kmh 30.00 in1015.9 mb 0.00 in0.0 mm 0.00 in0.0 mm 0.00 in0.0 mm
02:06 PM 68.7°F20.4°C 62.2°F16.8°C 80% 7.0 mph WSW11.3 kmh WSW 16.0 mph25.7 kmh 30.00 in1015.9 mb 0.00 in0.0 mm 0.00 in0.0 mm 0.00 in0.0 mm
02:09 PM 68.5°F20.3°C 62.2°F16.8°C 80% 8.0 mph WSW12.9 kmh WSW 14.0 mph22.5 kmh 30.00 in1015.9 mb 0.00 in0.0 mm 0.00 in0.0 mm 0.00 in0.0 mm
02:12 PM 68.5°F20.3°C 62.1°F16.7°C 80% 8.0 mph WSW12.9 kmh WSW 16.0 mph25.7 kmh 30.00 in1015.9 mb 0.00 in0.0 mm 0.00 in0.0 mm 0.00 in0.0 mm
02:15 PM 68.5°F20.3°C 62.2°F16.8°C 80% 8.0 mph WSW12.9 kmh WSW 17.0 mph27.4 kmh 30.00 in1015.9 mb 0.00 in0.0 mm 0.00 in0.0 mm 0.00 in0.0 mm
02:18 PM 68.4°F20.2°C 61.7°F16.5°C 79% 8.0 mph WSW12.9 kmh WSW 17.0 mph27.4 kmh 30.00 in1015.9 mb 0.00 in0.0 mm 0.00 in0.0 mm 0.00 in0.0 mm
02:21 PM 68.4°F20.2°C 61.5°F16.4°C 79% 9.0 mph WSW14.5 kmh WSW 21.0 mph33.8 kmh 30.00 in1015.9 mb 0.00 in0.0 mm 0.00 in0.0 mm 0.00 in0.0 mm
02:24 PM 68.2°F20.1°C 61.5°F16.4°C 79% 9.0 mph WSW14.5 kmh WSW 21.0 mph33.8 kmh 30.00 in1015.9 mb 0.00 in0.0 mm 0.00 in0.0 mm 0.00 in0.0 mm
02:27 PM 68.2°F20.1°C 61.5°F16.4°C 79% 9.0 mph WSW14.5 kmh WSW 21.0 mph33.8 kmh 30.00 in1015.9 mb 0.00 in0.0 mm 0.00 in0.0 mm 0.00 in0.0 mm
02:30 PM 68.4°F20.2°C 62.1°F16.7°C 80% 9.0 mph WSW14.5 kmh WSW 21.0 mph33.8 kmh 30.00 in1015.9 mb 0.00 in0.0 mm 0.00 in0.0 mm 0.00 in0.0 mm
02:33 PM 68.5°F20.3°C 62.2°F16.8°C 80% 8.0 mph WSW12.9 kmh WSW 17.0 mph27.4 kmh 30.00 in1015.9 mb 0.00 in0.0 mm 0.00 in0.0 mm 0.00 in0.0 mm
02:36 PM 68.7°F20.4°C 62.4°F16.9°C 80% 8.0 mph WSW12.9 kmh WSW 17.0 mph27.4 kmh 30.00 in1015.9 mb 0.00 in0.0 mm 0.00 in0.0 mm 0.00 in0.0 mm
02:39 PM 68.9°F20.5°C 62.1°F16.7°C 79% 8.0 mph WSW12.9 kmh WSW 17.0 mph27.4 kmh 30.00 in1015.9 mb 0.00 in0.0 mm 0.00 in0.0 mm 0.00 in0.0 mm
02:42 PM 68.9°F20.5°C 61.7°F16.5°C 78% 8.0 mph WSW12.9 kmh WSW 15.0 mph24.1 kmh 30.00 in1015.9 mb 0.00 in0.0 mm 0.00 in0.0 mm 0.00 in0.0 mm
02:45 PM 68.7°F20.4°C 62.1°F16.7°C 79% 9.0 mph WSW14.5 kmh WSW 15.0 mph24.1 kmh 30.00 in1015.9 mb 0.00 in0.0 mm 0.00 in0.0 mm 0.00 in0.0 mm
02:48 PM 69.1°F20.6°C 62.2°F16.8°C 79% 8.0 mph WSW12.9 kmh WSW 15.0 mph24.1 kmh 30.00 in1015.9 mb 0.00 in0.0 mm 0.00 in0.0 mm 0.00 in0.0 mm
02:51 PM 69.1°F20.6°C 62.2°F16.8°C 79% 8.0 mph WSW12.9 kmh WSW 15.0 mph24.1 kmh 30.00 in1015.9 mb 0.00 in0.0 mm 0.00 in0.0 mm 0.00 in0.0 mm
02:54 PM 69.1°F20.6°C 61.9°F16.6°C 78% 9.0 mph WSW14.5 kmh WSW 16.0 mph25.7 kmh 30.00 in1015.9 mb 0.00 in0.0 mm 0.00 in0.0 mm 0.00 in0.0 mm
02:57 PM 68.7°F20.4°C 61.3°F16.3°C 77% 8.0 mph WSW12.9 kmh WSW 16.0 mph25.7 kmh 30.00 in1015.9 mb 0.00 in0.0 mm 0.00 in0.0 mm 0.00 in0.0 mm
03:00 PM 68.5°F20.3°C 61.5°F16.4°C 78% 8.0 mph WSW12.9 kmh WSW 16.0 mph25.7 kmh 30.00 in1015.9 mb 0.00 in0.0 mm 0.00 in0.0 mm 0.00 in0.0 mm
03:03 PM 68.4°F20.2°C 61.3°F16.3°C 78% 8.0 mph WSW12.9 kmh WSW 15.0 mph24.1 kmh 30.00 in1015.9 mb 0.00 in0.0 mm 0.00 in0.0 mm 0.00 in0.0 mm
03:06 PM 68.2°F20.1°C 61.0°F16.1°C 78% 8.0 mph WSW12.9 kmh WSW 15.0 mph24.1 kmh 30.00 in1015.9 mb 0.00 in0.0 mm 0.00 in0.0 mm 0.00 in0.0 mm
03:09 PM 68.2°F20.1°C 61.5°F16.4°C 79% 8.0 mph WSW12.9 kmh WSW 15.0 mph24.1 kmh 30.01 in1016.3 mb 0.00 in0.0 mm 0.00 in0.0 mm 0.00 in0.0 mm
03:12 PM 68.4°F20.2°C 61.7°F16.5°C 79% 8.0 mph WSW12.9 kmh WSW 15.0 mph24.1 kmh 30.00 in1015.9 mb 0.00 in0.0 mm 0.00 in0.0 mm 0.00 in0.0 mm
03:15 PM 68.5°F20.3°C 62.2°F16.8°C 80% 8.0 mph WSW12.9 kmh WSW 16.0 mph25.7 kmh 30.01 in1016.3 mb 0.00 in0.0 mm 0.00 in0.0 mm 0.00 in0.0 mm
03:18 PM 68.7°F20.4°C 61.9°F16.6°C 79% 8.0 mph WSW12.9 kmh WSW 19.0 mph30.6 kmh 30.01 in1016.3 mb 0.00 in0.0 mm 0.00 in0.0 mm 0.00 in0.0 mm
03:21 PM 68.7°F20.4°C 61.9°F16.6°C 79% 9.0 mph WSW14.5 kmh WSW 19.0 mph30.6 kmh 30.01 in1016.3 mb 0.00 in0.0 mm 0.00 in0.0 mm 0.00 in0.0 mm
03:24 PM 68.7°F20.4°C 62.1°F16.7°C 79% 10.0 mph WSW16.1 kmh WSW 19.0 mph30.6 kmh 30.01 in1016.3 mb 0.00 in0.0 mm 0.00 in0.0 mm 0.00 in0.0 mm
03:27 PM 68.9°F20.5°C 61.7°F16.5°C 78% 10.0 mph WSW16.1 kmh WSW 19.0 mph30.6 kmh 30.01 in1016.3 mb 0.00 in0.0 mm 0.00 in0.0 mm 0.00 in0.0 mm
03:30 PM 68.7°F20.4°C 61.7°F16.5°C 78% 9.0 mph WSW14.5 kmh WSW 19.0 mph30.6 kmh 30.01 in1016.3 mb 0.00 in0.0 mm 0.00 in0.0 mm 0.00 in0.0 mm
03:33 PM 68.7°F20.4°C 61.9°F16.6°C 79% 8.0 mph WSW12.9 kmh WSW 21.0 mph33.8 kmh 30.01 in1016.3 mb 0.00 in0.0 mm 0.00 in0.0 mm 0.00 in0.0 mm
03:36 PM 68.7°F20.4°C 61.9°F16.6°C 79% 9.0 mph WSW14.5 kmh WSW 21.0 mph33.8 kmh 30.01 in1016.3 mb 0.00 in0.0 mm 0.00 in0.0 mm 0.00 in0.0 mm
03:39 PM 68.5°F20.3°C 61.3°F16.3°C 78% 9.0 mph WSW14.5 kmh WSW 21.0 mph33.8 kmh 30.01 in1016.3 mb 0.00 in0.0 mm 0.00 in0.0 mm 0.00 in0.0 mm
03:42 PM 68.4°F20.2°C 61.7°F16.5°C 79% 10.0 mph WSW16.1 kmh WSW 21.0 mph33.8 kmh 30.01 in1016.3 mb 0.00 in0.0 mm 0.00 in0.0 mm 0.00 in0.0 mm
03:45 PM 68.5°F20.3°C 61.7°F16.5°C 79% 9.0 mph WSW14.5 kmh WSW 17.0 mph27.4 kmh 30.01 in1016.3 mb 0.00 in0.0 mm 0.00 in0.0 mm 0.00 in0.0 mm
03:48 PM 68.5°F20.3°C 61.7°F16.5°C 79% 8.0 mph WSW12.9 kmh WSW 17.0 mph27.4 kmh 30.01 in1016.3 mb 0.00 in0.0 mm 0.00 in0.0 mm 0.00 in0.0 mm
03:51 PM 68.4°F20.2°C 61.7°F16.5°C 79% 7.0 mph WSW11.3 kmh WSW 15.0 mph24.1 kmh 30.01 in1016.3 mb 0.00 in0.0 mm 0.00 in0.0 mm 0.00 in0.0 mm
03:54 PM 68.4°F20.2°C 61.5°F16.4°C 79% 8.0 mph WSW12.9 kmh WSW 15.0 mph24.1 kmh 30.01 in1016.3 mb 0.00 in0.0 mm 0.00 in0.0 mm 0.00 in0.0 mm
03:57 PM 68.2°F20.1°C 61.5°F16.4°C 79% 8.0 mph WSW12.9 kmh WSW 15.0 mph24.1 kmh 30.01 in1016.3 mb 0.00 in0.0 mm 0.00 in0.0 mm 0.00 in0.0 mm
04:00 PM 68.0°F20.0°C 61.2°F16.2°C 79% 8.0 mph WSW12.9 kmh WSW 15.0 mph24.1 kmh 30.01 in1016.3 mb 0.00 in0.0 mm 0.00 in0.0 mm 0.00 in0.0 mm
04:03 PM 67.8°F19.9°C 61.0°F16.1°C 79% 8.0 mph WSW12.9 kmh WSW 18.0 mph29.0 kmh 30.01 in1016.3 mb 0.00 in0.0 mm 0.00 in0.0 mm 0.00 in0.0 mm
04:06 PM 67.5°F19.7°C 60.8°F16.0°C 79% 7.0 mph WSW11.3 kmh WSW 18.0 mph29.0 kmh 30.01 in1016.3 mb 0.00 in0.0 mm 0.00 in0.0 mm 0.00 in0.0 mm
04:09 PM 67.5°F19.7°C 61.0°F16.1°C 80% 8.0 mph WSW12.9 kmh WSW 18.0 mph29.0 kmh 30.01 in1016.3 mb 0.00 in0.0 mm 0.00 in0.0 mm 0.00 in0.0 mm
04:12 PM 67.3°F19.6°C 61.0°F16.1°C 80% 7.0 mph WSW11.3 kmh WSW 15.0 mph24.1 kmh 30.01 in1016.3 mb 0.00 in0.0 mm 0.00 in0.0 mm 0.00 in0.0 mm
04:15 PM 67.3°F19.6°C 61.2°F16.2°C 81% 7.0 mph WSW11.3 kmh WSW 15.0 mph24.1 kmh 30.02 in1016.6 mb 0.00 in0.0 mm 0.00 in0.0 mm 0.00 in0.0 mm
04:18 PM 67.1°F19.5°C 61.2°F16.2°C 81% 7.0 mph WSW11.3 kmh WSW 15.0 mph24.1 kmh 30.02 in1016.6 mb 0.00 in0.0 mm 0.00 in0.0 mm 0.00 in0.0 mm
04:21 PM 67.1°F19.5°C 61.2°F16.2°C 81% 7.0 mph WSW11.3 kmh WSW 15.0 mph24.1 kmh 30.02 in1016.6 mb 0.00 in0.0 mm 0.00 in0.0 mm 0.00 in0.0 mm
04:24 PM 66.9°F19.4°C 60.4°F15.8°C 80% 6.0 mph WSW9.7 kmh WSW 14.0 mph22.5 kmh 30.02 in1016.6 mb 0.00 in0.0 mm 0.00 in0.0 mm 0.00 in0.0 mm
04:27 PM 66.6°F19.2°C 60.6°F15.9°C 81% 6.0 mph WSW9.7 kmh WSW 13.0 mph20.9 kmh 30.02 in1016.6 mb 0.00 in0.0 mm 0.00 in0.0 mm 0.00 in0.0 mm
04:30 PM 66.4°F19.1°C 60.4°F15.8°C 81% 7.0 mph WSW11.3 kmh WSW 15.0 mph24.1 kmh 30.02 in1016.6 mb 0.00 in0.0 mm 0.00 in0.0 mm 0.00 in0.0 mm
04:33 PM 66.4°F19.1°C 60.6°F15.9°C 82% 7.0 mph WSW11.3 kmh WSW 15.0 mph24.1 kmh 30.02 in1016.6 mb 0.00 in0.0 mm 0.00 in0.0 mm 0.00 in0.0 mm
04:36 PM 66.4°F19.1°C 60.6°F15.9°C 82% 7.0 mph WSW11.3 kmh WSW 15.0 mph24.1 kmh 30.02 in1016.6 mb 0.00 in0.0 mm 0.00 in0.0 mm 0.00 in0.0 mm
04:39 PM 66.2°F19.0°C 60.6°F15.9°C 82% 8.0 mph WSW12.9 kmh WSW 18.0 mph29.0 kmh 30.02 in1016.6 mb 0.00 in0.0 mm 0.00 in0.0 mm 0.00 in0.0 mm
04:42 PM 66.2°F19.0°C 60.3°F15.7°C 81% 7.0 mph WSW11.3 kmh WSW 18.0 mph29.0 kmh 30.02 in1016.6 mb 0.00 in0.0 mm 0.00 in0.0 mm 0.00 in0.0 mm
04:45 PM 66.2°F19.0°C 60.6°F15.9°C 82% 7.0 mph WSW11.3 kmh WSW 18.0 mph29.0 kmh 30.02 in1016.6 mb 0.00 in0.0 mm 0.00 in0.0 mm 0.00 in0.0 mm
04:48 PM 66.0°F18.9°C 60.1°F15.6°C 81% 8.0 mph WSW12.9 kmh WSW 15.0 mph24.1 kmh 30.01 in1016.3 mb 0.00 in0.0 mm 0.00 in0.0 mm 0.00 in0.0 mm
04:51 PM 66.4°F19.1°C 60.8°F16.0°C 82% 8.0 mph WSW12.9 kmh WSW 15.0 mph24.1 kmh 30.02 in1016.6 mb 0.00 in0.0 mm 0.00 in0.0 mm 0.00 in0.0 mm
04:54 PM 66.9°F19.4°C 61.2°F16.2°C 82% 8.0 mph WSW12.9 kmh WSW 15.0 mph24.1 kmh 30.01 in1016.3 mb 0.00 in0.0 mm 0.00 in0.0 mm 0.00 in0.0 mm
04:57 PM 67.1°F19.5°C 60.8°F16.0°C 80% 8.0 mph WSW12.9 kmh WSW 14.0 mph22.5 kmh 30.01 in1016.3 mb 0.00 in0.0 mm 0.00 in0.0 mm 0.00 in0.0 mm
05:00 PM 67.3°F19.6°C 61.0°F16.1°C 80% 8.0 mph WSW12.9 kmh WSW 17.0 mph27.4 kmh 30.01 in1016.3 mb 0.00 in0.0 mm 0.00 in0.0 mm 0.00 in0.0 mm
05:03 PM 67.6°F19.8°C 60.8°F16.0°C 79% 8.0 mph WSW12.9 kmh WSW 17.0 mph27.4 kmh 30.01 in1016.3 mb 0.00 in0.0 mm 0.00 in0.0 mm 0.00 in0.0 mm
05:06 PM 68.0°F20.0°C 60.8°F16.0°C 78% 8.0 mph WSW12.9 kmh WSW 18.0 mph29.0 kmh 30.01 in1016.3 mb 0.00 in0.0 mm 0.00 in0.0 mm 0.00 in0.0 mm
05:09 PM 68.2°F20.1°C 61.2°F16.2°C 78% 8.0 mph WSW12.9 kmh WSW 18.0 mph29.0 kmh 30.01 in1016.3 mb 0.00 in0.0 mm 0.00 in0.0 mm 0.00 in0.0 mm
05:12 PM 68.4°F20.2°C 61.2°F16.2°C 78% 8.0 mph WSW12.9 kmh WSW 18.0 mph29.0 kmh 30.01 in1016.3 mb 0.00 in0.0 mm 0.00 in0.0 mm 0.00 in0.0 mm
05:15 PM 68.5°F20.3°C 61.3°F16.3°C 78% 8.0 mph WSW12.9 kmh WSW 18.0 mph29.0 kmh 30.02 in1016.6 mb 0.00 in0.0 mm 0.00 in0.0 mm 0.00 in0.0 mm
05:18 PM 68.5°F20.3°C 61.0°F16.1°C 77% 8.0 mph WSW12.9 kmh WSW 18.0 mph29.0 kmh 30.02 in1016.6 mb 0.00 in0.0 mm 0.00 in0.0 mm 0.00 in0.0 mm
05:21 PM 68.4°F20.2°C 60.6°F15.9°C 76% 8.0 mph WSW12.9 kmh WSW 16.0 mph25.7 kmh 30.02 in1016.6 mb 0.00 in0.0 mm 0.00 in0.0 mm 0.00 in0.0 mm
05:24 PM 68.2°F20.1°C 60.6°F15.9°C 77% 7.0 mph WSW11.3 kmh WSW 16.0 mph25.7 kmh 30.03 in1016.9 mb 0.00 in0.0 mm 0.00 in0.0 mm 0.00 in0.0 mm
05:27 PM 67.8°F19.9°C 60.6°F15.9°C 78% 6.0 mph WSW9.7 kmh WSW 14.0 mph22.5 kmh 30.03 in1016.9 mb 0.00 in0.0 mm 0.00 in0.0 mm 0.00 in0.0 mm
05:30 PM 67.5°F19.7°C 60.4°F15.8°C 78% 5.0 mph WSW8.0 kmh WSW 13.0 mph20.9 kmh 30.03 in1016.9 mb 0.00 in0.0 mm 0.00 in0.0 mm 0.00 in0.0 mm
05:33 PM 67.1°F19.5°C 60.1°F15.6°C 78% 5.0 mph WSW8.0 kmh WSW 12.0 mph19.3 kmh 30.03 in1016.9 mb 0.00 in0.0 mm 0.00 in0.0 mm 0.00 in0.0 mm
05:36 PM 66.7°F19.3°C 60.1°F15.6°C 79% 5.0 mph WSW8.0 kmh WSW 12.0 mph19.3 kmh 30.03 in1016.9 mb 0.00 in0.0 mm 0.00 in0.0 mm 0.00 in0.0 mm
05:39 PM 66.6°F19.2°C 59.7°F15.4°C 79% 5.0 mph WSW8.0 kmh WSW 12.0 mph19.3 kmh 30.03 in1016.9 mb 0.00 in0.0 mm 0.00 in0.0 mm 0.00 in0.0 mm
05:42 PM 66.4°F19.1°C 60.1°F15.6°C 80% 5.0 mph WSW8.0 kmh WSW 13.0 mph20.9 kmh 30.03 in1016.9 mb 0.00 in0.0 mm 0.00 in0.0 mm 0.00 in0.0 mm
05:45 PM 66.0°F18.9°C 59.7°F15.4°C 80% 5.0 mph W8.0 kmh W 13.0 mph20.9 kmh 30.04 in1017.3 mb 0.00 in0.0 mm 0.00 in0.0 mm 0.00 in0.0 mm
05:48 PM 66.0°F18.9°C 59.7°F15.4°C 80% 5.0 mph WSW8.0 kmh WSW 14.0 mph22.5 kmh 30.04 in1017.3 mb 0.00 in0.0 mm 0.00 in0.0 mm 0.00 in0.0 mm
05:51 PM 65.7°F18.7°C 59.4°F15.2°C 80% 5.0 mph WSW8.0 kmh WSW 14.0 mph22.5 kmh 30.04 in1017.3 mb 0.00 in0.0 mm 0.00 in0.0 mm 0.00 in0.0 mm
05:54 PM 65.7°F18.7°C 59.7°F15.4°C 81% 5.0 mph W8.0 kmh W 14.0 mph22.5 kmh 30.04 in1017.3 mb 0.00 in0.0 mm 0.00 in0.0 mm 0.00 in0.0 mm
05:57 PM 65.5°F18.6°C 59.2°F15.1°C 80% 5.0 mph W8.0 kmh W 14.0 mph22.5 kmh 30.04 in1017.3 mb 0.00 in0.0 mm 0.00 in0.0 mm 0.00 in0.0 mm
06:00 PM 65.5°F18.6°C 59.4°F15.2°C 81% 6.0 mph WSW9.7 kmh WSW 14.0 mph22.5 kmh 30.04 in1017.3 mb 0.00 in0.0 mm 0.00 in0.0 mm 0.00 in0.0 mm
06:03 PM 65.3°F18.5°C 59.4°F15.2°C 81% 6.0 mph WSW9.7 kmh WSW 16.0 mph25.7 kmh 30.03 in1016.9 mb 0.00 in0.0 mm 0.00 in0.0 mm 0.00 in0.0 mm
06:06 PM 65.1°F18.4°C 59.2°F15.1°C 81% 6.0 mph WSW9.7 kmh WSW 16.0 mph25.7 kmh 30.04 in1017.3 mb 0.00 in0.0 mm 0.00 in0.0 mm 0.00 in0.0 mm
06:09 PM 65.1°F18.4°C 59.2°F15.1°C 81% 6.0 mph WSW9.7 kmh WSW 16.0 mph25.7 kmh 30.04 in1017.3 mb 0.00 in0.0 mm 0.00 in0.0 mm 0.00 in0.0 mm
06:12 PM 65.1°F18.4°C 59.2°F15.1°C 81% 6.0 mph W9.7 kmh W 16.0 mph25.7 kmh 30.04 in1017.3 mb 0.00 in0.0 mm 0.00 in0.0 mm 0.00 in0.0 mm
06:15 PM 65.1°F18.4°C 59.2°F15.1°C 81% 6.0 mph W9.7 kmh W 12.0 mph19.3 kmh 30.04 in1017.3 mb 0.00 in0.0 mm 0.00 in0.0 mm 0.00 in0.0 mm
06:18 PM 65.1°F18.4°C 59.2°F15.1°C 81% 6.0 mph W9.7 kmh W 13.0 mph20.9 kmh 30.05 in1017.6 mb 0.00 in0.0 mm 0.00 in0.0 mm 0.00 in0.0 mm
06:21 PM 65.1°F18.4°C 59.2°F15.1°C 81% 6.0 mph W9.7 kmh W 14.0 mph22.5 kmh 30.05 in1017.6 mb 0.00 in0.0 mm 0.00 in0.0 mm 0.00 in0.0 mm
06:24 PM 64.9°F18.3°C 58.6°F14.8°C 80% 6.0 mph W9.7 kmh W 14.0 mph22.5 kmh 30.04 in1017.3 mb 0.00 in0.0 mm 0.00 in0.0 mm 0.00 in0.0 mm
06:27 PM 64.8°F18.2°C 58.8°F14.9°C 81% 6.0 mph W9.7 kmh W 14.0 mph22.5 kmh 30.04 in1017.3 mb 0.00 in0.0 mm 0.00 in0.0 mm 0.00 in0.0 mm
06:30 PM 64.8°F18.2°C 58.8°F14.9°C 81% 5.0 mph WSW8.0 kmh WSW 12.0 mph19.3 kmh 30.04 in1017.3 mb 0.00 in0.0 mm 0.00 in0.0 mm 0.00 in0.0 mm
06:33 PM 64.6°F18.1°C 58.6°F14.8°C 81% 5.0 mph W8.0 kmh W 15.0 mph24.1 kmh 30.05 in1017.6 mb 0.00 in0.0 mm 0.00 in0.0 mm 0.00 in0.0 mm
06:36 PM 64.6°F18.1°C 58.6°F14.8°C 81% 6.0 mph W9.7 kmh W 15.0 mph24.1 kmh 30.05 in1017.6 mb 0.00 in0.0 mm 0.00 in0.0 mm 0.00 in0.0 mm
06:39 PM 64.6°F18.1°C 58.5°F14.7°C 81% 6.0 mph W9.7 kmh W 15.0 mph24.1 kmh 30.05 in1017.6 mb 0.00 in0.0 mm 0.00 in0.0 mm 0.00 in0.0 mm
06:42 PM 64.6°F18.1°C 58.8°F14.9°C 82% 7.0 mph W11.3 kmh W 14.0 mph22.5 kmh 30.05 in1017.6 mb 0.00 in0.0 mm 0.00 in0.0 mm 0.00 in0.0 mm
06:45 PM 64.4°F18.0°C 58.8°F14.9°C 82% 6.0 mph W9.7 kmh W 13.0 mph20.9 kmh 30.05 in1017.6 mb 0.00 in0.0 mm 0.00 in0.0 mm 0.00 in0.0 mm
06:48 PM 64.4°F18.0°C 58.8°F14.9°C 82% 5.0 mph WSW8.0 kmh WSW 13.0 mph20.9 kmh 30.05 in1017.6 mb 0.00 in0.0 mm 0.00 in0.0 mm 0.00 in0.0 mm
06:51 PM 64.4°F18.0°C 58.8°F14.9°C 82% 5.0 mph WSW8.0 kmh WSW 10.0 mph16.1 kmh 30.05 in1017.6 mb 0.00 in0.0 mm 0.00 in0.0 mm 0.00 in0.0 mm
06:54 PM 64.2°F17.9°C 59.0°F15.0°C 83% 5.0 mph WSW8.0 kmh WSW 11.0 mph17.7 kmh 30.05 in1017.6 mb 0.00 in0.0 mm 0.00 in0.0 mm 0.00 in0.0 mm
06:57 PM 64.2°F17.9°C 59.0°F15.0°C 83% 4.0 mph WSW6.4 kmh WSW 11.0 mph17.7 kmh 30.05 in1017.6 mb 0.00 in0.0 mm 0.00 in0.0 mm 0.00 in0.0 mm
07:00 PM 64.2°F17.9°C 59.0°F15.0°C 83% 4.0 mph WSW6.4 kmh WSW 11.0 mph17.7 kmh 30.05 in1017.6 mb 0.00 in0.0 mm 0.00 in0.0 mm 0.00 in0.0 mm
07:03 PM 64.2°F17.9°C 59.0°F15.0°C 83% 5.0 mph WSW8.0 kmh WSW 9.0 mph14.5 kmh 30.05 in1017.6 mb 0.00 in0.0 mm 0.00 in0.0 mm 0.00 in0.0 mm
07:06 PM 64.2°F17.9°C 59.0°F15.0°C 83% 4.0 mph WSW6.4 kmh WSW 9.0 mph14.5 kmh 30.05 in1017.6 mb 0.00 in0.0 mm 0.00 in0.0 mm 0.00 in0.0 mm
07:09 PM 64.0°F17.8°C 58.8°F14.9°C 83% 5.0 mph WSW8.0 kmh WSW 12.0 mph19.3 kmh 30.05 in1017.6 mb 0.00 in0.0 mm 0.00 in0.0 mm 0.00 in0.0 mm
07:12 PM 64.0°F17.8°C 58.8°F14.9°C 83% 4.0 mph WSW6.4 kmh WSW 12.0 mph19.3 kmh 30.06 in1017.9 mb 0.00 in0.0 mm 0.00 in0.0 mm 0.00 in0.0 mm
07:15 PM 63.9°F17.7°C 58.6°F14.8°C 83% 5.0 mph WSW8.0 kmh WSW 12.0 mph19.3 kmh 30.06 in1017.9 mb 0.00 in0.0 mm 0.00 in0.0 mm 0.00 in0.0 mm
07:18 PM 63.9°F17.7°C 59.0°F15.0°C 84% 4.0 mph WSW6.4 kmh WSW 12.0 mph19.3 kmh 30.06 in1017.9 mb 0.00 in0.0 mm 0.00 in0.0 mm 0.00 in0.0 mm
07:21 PM 63.9°F17.7°C 58.8°F14.9°C 84% 5.0 mph WSW8.0 kmh WSW 11.0 mph17.7 kmh 30.06 in1017.9 mb 0.00 in0.0 mm 0.00 in0.0 mm 0.00 in0.0 mm
07:24 PM 63.7°F17.6°C 58.8°F14.9°C 84% 5.0 mph WSW8.0 kmh WSW 12.0 mph19.3 kmh 30.06 in1017.9 mb 0.00 in0.0 mm 0.00 in0.0 mm 0.00 in0.0 mm
07:27 PM 63.5°F17.5°C 58.6°F14.8°C 84% 5.0 mph WSW8.0 kmh WSW 12.0 mph19.3 kmh 30.06 in1017.9 mb 0.00 in0.0 mm 0.00 in0.0 mm 0.00 in0.0 mm
07:30 PM 63.3°F17.4°C 58.5°F14.7°C 84% 5.0 mph WSW8.0 kmh WSW 12.0 mph19.3 kmh 30.06 in1017.9 mb 0.00 in0.0 mm 0.00 in0.0 mm 0.00 in0.0 mm
07:33 PM 63.1°F17.3°C 58.1°F14.5°C 84% 4.0 mph WSW6.4 kmh WSW 10.0 mph16.1 kmh 30.06 in1017.9 mb 0.00 in0.0 mm 0.00 in0.0 mm 0.00 in0.0 mm
07:36 PM 63.0°F17.2°C 58.5°F14.7°C 85% 5.0 mph WSW8.0 kmh WSW 12.0 mph19.3 kmh 30.07 in1018.3 mb 0.00 in0.0 mm 0.00 in0.0 mm 0.00 in0.0 mm
07:39 PM 63.0°F17.2°C 58.5°F14.7°C 85% 5.0 mph WSW8.0 kmh WSW 12.0 mph19.3 kmh 30.07 in1018.3 mb 0.00 in0.0 mm 0.00 in0.0 mm 0.00 in0.0 mm
07:42 PM 63.0°F17.2°C 58.3°F14.6°C 85% 4.0 mph WSW6.4 kmh WSW 12.0 mph19.3 kmh 30.07 in1018.3 mb 0.00 in0.0 mm 0.00 in0.0 mm 0.00 in0.0 mm
07:45 PM 63.0°F17.2°C 58.3°F14.6°C 85% 4.0 mph WSW6.4 kmh WSW 12.0 mph19.3 kmh 30.07 in1018.3 mb 0.00 in0.0 mm 0.00 in0.0 mm 0.00 in0.0 mm
07:48 PM 62.8°F17.1°C 58.3°F14.6°C 85% 4.0 mph WSW6.4 kmh WSW 10.0 mph16.1 kmh 30.07 in1018.3 mb 0.00 in0.0 mm 0.00 in0.0 mm 0.00 in0.0 mm
07:51 PM 62.8°F17.1°C 58.3°F14.6°C 85% 4.0 mph WSW6.4 kmh WSW 10.0 mph16.1 kmh 30.07 in1018.3 mb 0.00 in0.0 mm 0.00 in0.0 mm 0.00 in0.0 mm
07:54 PM 62.6°F17.0°C 58.1°F14.5°C 85% 4.0 mph WSW6.4 kmh WSW 11.0 mph17.7 kmh 30.07 in1018.3 mb 0.00 in0.0 mm 0.00 in0.0 mm 0.00 in0.0 mm
07:57 PM 62.4°F16.9°C 58.3°F14.6°C 86% 4.0 mph WSW6.4 kmh WSW 11.0 mph17.7 kmh 30.07 in1018.3 mb 0.00 in0.0 mm 0.00 in0.0 mm 0.00 in0.0 mm
08:00 PM 62.4°F16.9°C 58.3°F14.6°C 86% 4.0 mph WSW6.4 kmh WSW 11.0 mph17.7 kmh 30.07 in1018.3 mb 0.00 in0.0 mm 0.00 in0.0 mm 0.00 in0.0 mm
08:03 PM 62.4°F16.9°C 58.1°F14.5°C 86% 4.0 mph WSW6.4 kmh WSW 11.0 mph17.7 kmh 30.07 in1018.3 mb 0.00 in0.0 mm 0.00 in0.0 mm 0.00 in0.0 mm
08:06 PM 62.2°F16.8°C 58.1°F14.5°C 86% 4.0 mph WSW6.4 kmh WSW 9.0 mph14.5 kmh 30.08 in1018.6 mb 0.00 in0.0 mm 0.00 in0.0 mm 0.00 in0.0 mm
08:09 PM 62.2°F16.8°C 57.9°F14.4°C 86% 3.0 mph WSW4.8 kmh WSW 8.0 mph12.9 kmh 30.07 in1018.3 mb 0.00 in0.0 mm 0.00 in0.0 mm 0.00 in0.0 mm
08:12 PM 62.2°F16.8°C 57.9°F14.4°C 86% 3.0 mph WSW4.8 kmh WSW 7.0 mph11.3 kmh 30.07 in1018.3 mb 0.00 in0.0 mm 0.00 in0.0 mm 0.00 in0.0 mm
08:15 PM 62.2°F16.8°C 57.9°F14.4°C 86% 3.0 mph WSW4.8 kmh WSW 7.0 mph11.3 kmh 30.08 in1018.6 mb 0.00 in0.0 mm 0.00 in0.0 mm 0.00 in0.0 mm
08:18 PM 62.2°F16.8°C 57.9°F14.4°C 86% 3.0 mph WSW4.8 kmh WSW 7.0 mph11.3 kmh 30.07 in1018.3 mb 0.00 in0.0 mm 0.00 in0.0 mm 0.00 in0.0 mm
08:21 PM 62.2°F16.8°C 57.9°F14.4°C 86% 3.0 mph W4.8 kmh W 6.0 mph9.7 kmh 30.07 in1018.3 mb 0.00 in0.0 mm 0.00 in0.0 mm 0.00 in0.0 mm
08:24 PM 62.2°F16.8°C 57.9°F14.4°C 86% 3.0 mph W4.8 kmh W 6.0 mph9.7 kmh 30.08 in1018.6 mb 0.00 in0.0 mm 0.00 in0.0 mm 0.00 in0.0 mm
08:27 PM 62.2°F16.8°C 57.9°F14.4°C 86% 2.0 mph WSW3.2 kmh WSW 6.0 mph9.7 kmh 30.08 in1018.6 mb 0.00 in0.0 mm 0.00 in0.0 mm 0.00 in0.0 mm
08:30 PM 62.2°F16.8°C 57.9°F14.4°C 86% 2.0 mph WSW3.2 kmh WSW 5.0 mph8.0 kmh 30.08 in1018.6 mb 0.00 in0.0 mm 0.00 in0.0 mm 0.00 in0.0 mm
08:33 PM 62.2°F16.8°C 57.9°F14.4°C 86% 2.0 mph WSW3.2 kmh WSW 7.0 mph11.3 kmh 30.08 in1018.6 mb 0.00 in0.0 mm 0.00 in0.0 mm 0.00 in0.0 mm
08:36 PM 62.2°F16.8°C 57.9°F14.4°C 86% 3.0 mph WSW4.8 kmh WSW 7.0 mph11.3 kmh 30.09 in1019.0 mb 0.00 in0.0 mm 0.00 in0.0 mm 0.00 in0.0 mm
08:39 PM 62.2°F16.8°C 57.9°F14.4°C 86% 3.0 mph WSW4.8 kmh WSW 7.0 mph11.3 kmh 30.09 in1019.0 mb 0.00 in0.0 mm 0.00 in0.0 mm 0.00 in0.0 mm
08:42 PM 62.2°F16.8°C 57.9°F14.4°C 86% 2.0 mph WSW3.2 kmh WSW 6.0 mph9.7 kmh 30.09 in1019.0 mb 0.00 in0.0 mm 0.00 in0.0 mm 0.00 in0.0 mm
08:45 PM 62.2°F16.8°C 57.9°F14.4°C 86% 2.0 mph WSW3.2 kmh WSW 4.0 mph6.4 kmh 30.09 in1019.0 mb 0.00 in0.0 mm 0.00 in0.0 mm 0.00 in0.0 mm
08:48 PM 62.2°F16.8°C 57.9°F14.4°C 86% 2.0 mph SW3.2 kmh SW 4.0 mph6.4 kmh 30.09 in1019.0 mb 0.00 in0.0 mm 0.00 in0.0 mm 0.00 in0.0 mm
08:51 PM 62.2°F16.8°C 57.9°F14.4°C 86% 1.0 mph WSW1.6 kmh WSW 4.0 mph6.4 kmh 30.09 in1019.0 mb 0.00 in0.0 mm 0.00 in0.0 mm 0.00 in0.0 mm
08:54 PM 62.2°F16.8°C 57.9°F14.4°C 86% 2.0 mph WSW3.2 kmh WSW 4.0 mph6.4 kmh 30.09 in1019.0 mb 0.00 in0.0 mm 0.00 in0.0 mm 0.00 in0.0 mm
08:57 PM 62.2°F16.8°C 57.9°F14.4°C 86% 2.0 mph WSW3.2 kmh WSW 6.0 mph9.7 kmh 30.09 in1019.0 mb 0.00 in0.0 mm 0.00 in0.0 mm 0.00 in0.0 mm
09:00 PM 62.2°F16.8°C 57.9°F14.4°C 86% 2.0 mph WSW3.2 kmh WSW 6.0 mph9.7 kmh 30.10 in1019.3 mb 0.00 in0.0 mm 0.00 in0.0 mm 0.00 in0.0 mm
09:03 PM 62.2°F16.8°C 57.9°F14.4°C 86% 2.0 mph W3.2 kmh W 6.0 mph9.7 kmh 30.10 in1019.3 mb 0.00 in0.0 mm 0.00 in0.0 mm 0.00 in0.0 mm
09:06 PM 62.2°F16.8°C 57.9°F14.4°C 86% 2.0 mph W3.2 kmh W 6.0 mph9.7 kmh 30.10 in1019.3 mb 0.00 in0.0 mm 0.00 in0.0 mm 0.00 in0.0 mm
09:09 PM 62.2°F16.8°C 57.9°F14.4°C 86% 2.0 mph WSW3.2 kmh WSW 6.0 mph9.7 kmh 30.10 in1019.3 mb 0.00 in0.0 mm 0.00 in0.0 mm 0.00 in0.0 mm
09:12 PM 62.2°F16.8°C 57.9°F14.4°C 86% 2.0 mph WSW3.2 kmh WSW 6.0 mph9.7 kmh 30.10 in1019.3 mb 0.00 in0.0 mm 0.00 in0.0 mm 0.00 in0.0 mm
09:15 PM 62.2°F16.8°C 57.9°F14.4°C 86% 2.0 mph WSW3.2 kmh WSW 5.0 mph8.0 kmh 30.10 in1019.3 mb 0.00 in0.0 mm 0.00 in0.0 mm 0.00 in0.0 mm
09:18 PM 62.2°F16.8°C 57.9°F14.4°C 86% 2.0 mph WSW3.2 kmh WSW 4.0 mph6.4 kmh 30.10 in1019.3 mb 0.00 in0.0 mm 0.00 in0.0 mm 0.00 in0.0 mm
09:21 PM 62.2°F16.8°C 57.9°F14.4°C 86% 2.0 mph WSW3.2 kmh WSW 4.0 mph6.4 kmh 30.10 in1019.3 mb 0.00 in0.0 mm 0.00 in0.0 mm 0.00 in0.0 mm
09:24 PM 62.2°F16.8°C 57.9°F14.4°C 86% 2.0 mph WSW3.2 kmh WSW 4.0 mph6.4 kmh 30.10 in1019.3 mb 0.00 in0.0 mm 0.00 in0.0 mm 0.00 in0.0 mm
09:27 PM 62.2°F16.8°C 57.9°F14.4°C 86% 2.0 mph W3.2 kmh W 4.0 mph6.4 kmh 30.10 in1019.3 mb 0.00 in0.0 mm 0.00 in0.0 mm 0.00 in0.0 mm
09:30 PM 62.2°F16.8°C 57.9°F14.4°C 86% 2.0 mph W3.2 kmh W 4.0 mph6.4 kmh 30.11 in1019.6 mb 0.00 in0.0 mm 0.00 in0.0 mm 0.00 in0.0 mm
09:33 PM 62.2°F16.8°C 57.9°F14.4°C 86% 2.0 mph W3.2 kmh W 4.0 mph6.4 kmh 30.11 in1019.6 mb 0.00 in0.0 mm 0.00 in0.0 mm 0.00 in0.0 mm
09:36 PM 62.2°F16.8°C 57.9°F14.4°C 86% 2.0 mph W3.2 kmh W 4.0 mph6.4 kmh 30.10 in1019.3 mb 0.00 in0.0 mm 0.00 in0.0 mm 0.00 in0.0 mm
09:39 PM 62.2°F16.8°C 57.9°F14.4°C 86% 2.0 mph WSW3.2 kmh WSW 4.0 mph6.4 kmh 30.10 in1019.3 mb 0.00 in0.0 mm 0.00 in0.0 mm 0.00 in0.0 mm
09:42 PM 62.2°F16.8°C 57.9°F14.4°C 86% 2.0 mph WSW3.2 kmh WSW 6.0 mph9.7 kmh 30.11 in1019.6 mb 0.00 in0.0 mm 0.00 in0.0 mm 0.00 in0.0 mm
09:45 PM 62.2°F16.8°C 57.9°F14.4°C 86% 2.0 mph WSW3.2 kmh WSW 6.0 mph9.7 kmh 30.11 in1019.6 mb 0.00 in0.0 mm 0.00 in0.0 mm 0.00 in0.0 mm
09:48 PM 62.2°F16.8°C 57.9°F14.4°C 86% 2.0 mph WSW3.2 kmh WSW 6.0 mph9.7 kmh 30.11 in1019.6 mb 0.00 in0.0 mm 0.00 in0.0 mm 0.00 in0.0 mm
09:51 PM 62.2°F16.8°C 57.9°F14.4°C 86% 2.0 mph WSW3.2 kmh WSW 4.0 mph6.4 kmh 30.11 in1019.6 mb 0.00 in0.0 mm 0.00 in0.0 mm 0.00 in0.0 mm
09:54 PM 62.2°F16.8°C 57.9°F14.4°C 86% 2.0 mph W3.2 kmh W 6.0 mph9.7 kmh 30.11 in1019.6 mb 0.00 in0.0 mm 0.00 in0.0 mm 0.00 in0.0 mm
09:57 PM 62.2°F16.8°C 57.9°F14.4°C 86% 2.0 mph W3.2 kmh W 6.0 mph9.7 kmh 30.11 in1019.6 mb 0.00 in0.0 mm 0.00 in0.0 mm 0.00 in0.0 mm
10:00 PM 62.2°F16.8°C 57.9°F14.4°C 86% 2.0 mph W3.2 kmh W 6.0 mph9.7 kmh 30.11 in1019.6 mb 0.00 in0.0 mm 0.00 in0.0 mm 0.00 in0.0 mm
10:03 PM 62.2°F16.8°C 57.9°F14.4°C 86% 1.0 mph W1.6 kmh W 6.0 mph9.7 kmh 30.11 in1019.6 mb 0.00 in0.0 mm 0.00 in0.0 mm 0.00 in0.0 mm
10:06 PM 62.2°F16.8°C 57.9°F14.4°C 86% 1.0 mph W1.6 kmh W 3.0 mph4.8 kmh 30.11 in1019.6 mb 0.00 in0.0 mm 0.00 in0.0 mm 0.00 in0.0 mm
10:09 PM 62.2°F16.8°C 57.9°F14.4°C 86% 1.0 mph W1.6 kmh W 3.0 mph4.8 kmh 30.11 in1019.6 mb 0.00 in0.0 mm 0.00 in0.0 mm 0.00 in0.0 mm
10:12 PM 62.2°F16.8°C 57.9°F14.4°C 86% 1.0 mph W1.6 kmh W 3.0 mph4.8 kmh 30.11 in1019.6 mb 0.00 in0.0 mm 0.00 in0.0 mm 0.00 in0.0 mm
10:15 PM 62.2°F16.8°C 57.9°F14.4°C 86% 1.0 mph W1.6 kmh W 3.0 mph4.8 kmh 30.12 in1020.0 mb 0.00 in0.0 mm 0.00 in0.0 mm 0.00 in0.0 mm
10:18 PM 62.2°F16.8°C 57.9°F14.4°C 86% 1.0 mph W1.6 kmh W 4.0 mph6.4 kmh 30.12 in1020.0 mb 0.00 in0.0 mm 0.00 in0.0 mm 0.00 in0.0 mm
10:21 PM 62.2°F16.8°C 57.9°F14.4°C 86% 1.0 mph WSW1.6 kmh WSW 4.0 mph6.4 kmh 30.11 in1019.6 mb 0.00 in0.0 mm 0.00 in0.0 mm 0.00 in0.0 mm
10:24 PM 62.2°F16.8°C 57.9°F14.4°C 86% 1.0 mph W1.6 kmh W 4.0 mph6.4 kmh 30.12 in1020.0 mb 0.00 in0.0 mm 0.00 in0.0 mm 0.00 in0.0 mm
10:27 PM 62.2°F16.8°C 57.9°F14.4°C 86% 1.0 mph W1.6 kmh W 4.0 mph6.4 kmh 30.12 in1020.0 mb 0.00 in0.0 mm 0.00 in0.0 mm 0.00 in0.0 mm
10:30 PM 62.2°F16.8°C 57.9°F14.4°C 86% 1.0 mph WNW1.6 kmh WNW 3.0 mph4.8 kmh 30.12 in1020.0 mb 0.00 in0.0 mm 0.00 in0.0 mm 0.00 in0.0 mm
10:33 PM 62.2°F16.8°C 57.9°F14.4°C 86% 1.0 mph W1.6 kmh W 3.0 mph4.8 kmh 30.12 in1020.0 mb 0.00 in0.0 mm 0.00 in0.0 mm 0.00 in0.0 mm
10:36 PM 62.2°F16.8°C 57.9°F14.4°C 86% 1.0 mph WNW1.6 kmh WNW 3.0 mph4.8 kmh 30.12 in1020.0 mb 0.00 in0.0 mm 0.00 in0.0 mm 0.00 in0.0 mm
10:39 PM 62.2°F16.8°C 57.9°F14.4°C 86% 1.0 mph WNW1.6 kmh WNW 3.0 mph4.8 kmh 30.12 in1020.0 mb 0.00 in0.0 mm 0.00 in0.0 mm 0.00 in0.0 mm
10:42 PM 62.2°F16.8°C 57.9°F14.4°C 86% 1.0 mph WNW1.6 kmh WNW 3.0 mph4.8 kmh 30.12 in1020.0 mb 0.00 in0.0 mm 0.00 in0.0 mm 0.00 in0.0 mm
10:45 PM 62.2°F16.8°C 57.9°F14.4°C 86% Calm Calm 3.0 mph4.8 kmh 30.12 in1020.0 mb 0.00 in0.0 mm 0.00 in0.0 mm 0.00 in0.0 mm
10:48 PM 62.2°F16.8°C 57.9°F14.4°C 86% Calm Calm 3.0 mph4.8 kmh 30.12 in1020.0 mb 0.00 in0.0 mm 0.00 in0.0 mm 0.00 in0.0 mm
10:51 PM 62.2°F16.8°C 57.9°F14.4°C 86% 1.0 mph NW1.6 kmh NW 4.0 mph6.4 kmh 30.12 in1020.0 mb 0.00 in0.0 mm 0.00 in0.0 mm 0.00 in0.0 mm
10:54 PM 62.2°F16.8°C 57.9°F14.4°C 86% 1.0 mph NW1.6 kmh NW 4.0 mph6.4 kmh 30.12 in1020.0 mb 0.00 in0.0 mm 0.00 in0.0 mm 0.00 in0.0 mm
10:57 PM 62.2°F16.8°C 57.9°F14.4°C 86% 2.0 mph NW3.2 kmh NW 5.0 mph8.0 kmh 30.12 in1020.0 mb 0.00 in0.0 mm 0.00 in0.0 mm 0.00 in0.0 mm
11:00 PM 62.2°F16.8°C 57.9°F14.4°C 86% 2.0 mph NNW3.2 kmh NNW 5.0 mph8.0 kmh 30.12 in1020.0 mb 0.00 in0.0 mm 0.00 in0.0 mm 0.00 in0.0 mm
11:03 PM 62.2°F16.8°C 57.9°F14.4°C 86% 3.0 mph NNW4.8 kmh NNW 8.0 mph12.9 kmh 30.12 in1020.0 mb 0.00 in0.0 mm 0.00 in0.0 mm 0.00 in0.0 mm
11:06 PM 62.2°F16.8°C 57.9°F14.4°C 86% 3.0 mph NNW4.8 kmh NNW 8.0 mph12.9 kmh 30.12 in1020.0 mb 0.00 in0.0 mm 0.00 in0.0 mm 0.00 in0.0 mm
11:09 PM 62.2°F16.8°C 57.9°F14.4°C 86% 3.0 mph NNW4.8 kmh NNW 8.0 mph12.9 kmh 30.12 in1020.0 mb 0.00 in0.0 mm 0.00 in0.0 mm 0.00 in0.0 mm
11:12 PM 62.2°F16.8°C 57.9°F14.4°C 86% 3.0 mph NNW4.8 kmh NNW 8.0 mph12.9 kmh 30.13 in1020.3 mb 0.00 in0.0 mm 0.00 in0.0 mm 0.00 in0.0 mm
11:15 PM 62.2°F16.8°C 57.9°F14.4°C 86% 3.0 mph NNW4.8 kmh NNW 8.0 mph12.9 kmh 30.12 in1020.0 mb 0.00 in0.0 mm 0.00 in0.0 mm 0.00 in0.0 mm
11:18 PM 62.2°F16.8°C 57.9°F14.4°C 86% 4.0 mph NNW6.4 kmh NNW 8.0 mph12.9 kmh 30.13 in1020.3 mb 0.00 in0.0 mm 0.00 in0.0 mm 0.00 in0.0 mm
11:21 PM 62.2°F16.8°C 57.9°F14.4°C 86% 4.0 mph NNW6.4 kmh NNW 8.0 mph12.9 kmh 30.13 in1020.3 mb 0.00 in0.0 mm 0.00 in0.0 mm 0.00 in0.0 mm
11:24 PM 62.2°F16.8°C 57.9°F14.4°C 86% 4.0 mph NNW6.4 kmh NNW 8.0 mph12.9 kmh 30.13 in1020.3 mb 0.00 in0.0 mm 0.00 in0.0 mm 0.00 in0.0 mm
11:27 PM 62.2°F16.8°C 57.9°F14.4°C 86% 3.0 mph NNW4.8 kmh NNW 6.0 mph9.7 kmh 30.13 in1020.3 mb 0.00 in0.0 mm 0.00 in0.0 mm 0.00 in0.0 mm
11:30 PM 62.2°F16.8°C 57.9°F14.4°C 86% 3.0 mph NNW4.8 kmh NNW 6.0 mph9.7 kmh 30.12 in1020.0 mb 0.00 in0.0 mm 0.00 in0.0 mm 0.00 in0.0 mm
11:33 PM 62.2°F16.8°C 57.9°F14.4°C 86% 3.0 mph NNW4.8 kmh NNW 6.0 mph9.7 kmh 30.12 in1020.0 mb 0.00 in0.0 mm 0.00 in0.0 mm 0.00 in0.0 mm
11:36 PM 62.2°F16.8°C 57.9°F14.4°C 86% 2.0 mph N3.2 kmh N 6.0 mph9.7 kmh 30.12 in1020.0 mb 0.00 in0.0 mm 0.00 in0.0 mm 0.00 in0.0 mm
11:39 PM 62.2°F16.8°C 57.9°F14.4°C 86% 2.0 mph N3.2 kmh N 6.0 mph9.7 kmh 30.12 in1020.0 mb 0.00 in0.0 mm 0.00 in0.0 mm 0.00 in0.0 mm
11:42 PM 62.2°F16.8°C 57.9°F14.4°C 86% 2.0 mph NNW3.2 kmh NNW 6.0 mph9.7 kmh 30.12 in1020.0 mb 0.00 in0.0 mm 0.00 in0.0 mm 0.00 in0.0 mm
11:45 PM 62.2°F16.8°C 57.9°F14.4°C 86% 3.0 mph NNW4.8 kmh NNW 6.0 mph9.7 kmh 30.13 in1020.3 mb 0.00 in0.0 mm 0.00 in0.0 mm 0.00 in0.0 mm
11:48 PM 62.2°F16.8°C 57.9°F14.4°C 86% 3.0 mph NNW4.8 kmh NNW 6.0 mph9.7 kmh 30.12 in1020.0 mb 0.00 in0.0 mm 0.00 in0.0 mm 0.00 in0.0 mm
11:51 PM 62.2°F16.8°C 57.9°F14.4°C 86% 4.0 mph NNW6.4 kmh NNW 6.0 mph9.7 kmh 30.13 in1020.3 mb 0.00 in0.0 mm 0.00 in0.0 mm 0.00 in0.0 mm
11:54 PM 62.2°F16.8°C 57.9°F14.4°C 86% 3.0 mph NNW4.8 kmh NNW 6.0 mph9.7 kmh 30.13 in1020.3 mb 0.00 in0.0 mm 0.00 in0.0 mm 0.00 in0.0 mm
11:57 PM 62.2°F16.8°C 57.9°F14.4°C 86% 3.0 mph NNW4.8 kmh NNW 6.0 mph9.7 kmh 30.13 in1020.3 mb 0.00 in0.0 mm 0.00 in0.0 mm 0.00 in0.0 mm